<?xml version="1.0" encoding="UTF-8" standalone="no" ?>
<gpx xmlns="http://www.topografix.com/GPX/1/1" xmlns:xsi="http://www.w3.org/2001/XMLSchema-instance" xsi:schemaLocation="http://www.topografix.com/GPX/1/1 http://www.topografix.com/GPX/1/1/gpx.xsd" version="1.1" creator="VisuGPX - https://www.visugpx.com">
  <metadata>
    <name>St Lary Soulan-Col de Peyresourde-St Lary Soulan / Moyenne 15.0 km/h Temps:2H</name>
    <desc><![CDATA[Moyenne 15.0 Km/h]]></desc>
  </metadata>
  <trk>
    <name><![CDATA[St Lary Soulan / Col de Peyresourde _1]]></name>
    <extensions>
      <line xmlns="http://www.topografix.com/GPX/gpx_style/0/2">
        <color>0000FF</color>
        <width>4</width>
      </line>
    </extensions>
    <trkseg>
      <trkpt lat="42.81213" lon="0.31698">
        <ele>833.9</ele>
        <time>2024-07-25T22:00:00.000Z</time>
      </trkpt>
      <trkpt lat="42.81208" lon="0.31708">
        <ele>837.8</ele>
        <time>2024-07-25T22:00:10.239Z</time>
      </trkpt>
      <trkpt lat="42.81208" lon="0.31717">
        <ele>839.6</ele>
        <time>2024-07-25T22:00:14.207Z</time>
      </trkpt>
      <trkpt lat="42.81233" lon="0.31749">
        <ele>838.3</ele>
        <time>2024-07-25T22:00:21.028Z</time>
      </trkpt>
      <trkpt lat="42.81251" lon="0.31783">
        <ele>836.3</ele>
        <time>2024-07-25T22:00:27.027Z</time>
      </trkpt>
      <trkpt lat="42.81266" lon="0.31816">
        <ele>838.4</ele>
        <time>2024-07-25T22:00:35.080Z</time>
      </trkpt>
      <trkpt lat="42.81272" lon="0.31841">
        <ele>839.5</ele>
        <time>2024-07-25T22:00:40.239Z</time>
      </trkpt>
      <trkpt lat="42.81266" lon="0.31899">
        <ele>842.8</ele>
        <time>2024-07-25T22:00:52.514Z</time>
      </trkpt>
      <trkpt lat="42.81265" lon="0.31924">
        <ele>844.1</ele>
        <time>2024-07-25T22:00:57.656Z</time>
      </trkpt>
      <trkpt lat="42.81268" lon="0.31949">
        <ele>843.9</ele>
        <time>2024-07-25T22:01:01.664Z</time>
      </trkpt>
      <trkpt lat="42.81281" lon="0.32018">
        <ele>844.4</ele>
        <time>2024-07-25T22:01:13.663Z</time>
      </trkpt>
      <trkpt lat="42.81273" lon="0.32133">
        <ele>849.9</ele>
        <time>2024-07-25T22:01:36.923Z</time>
      </trkpt>
      <trkpt lat="42.81276" lon="0.32158">
        <ele>850.2</ele>
        <time>2024-07-25T22:01:41.278Z</time>
      </trkpt>
      <trkpt lat="42.81289" lon="0.32207">
        <ele>852</ele>
        <time>2024-07-25T22:01:51.171Z</time>
      </trkpt>
      <trkpt lat="42.81292" lon="0.32236">
        <ele>853.3</ele>
        <time>2024-07-25T22:01:56.982Z</time>
      </trkpt>
      <trkpt lat="42.81291" lon="0.32261">
        <ele>854.7</ele>
        <time>2024-07-25T22:02:02.219Z</time>
      </trkpt>
      <trkpt lat="42.81288" lon="0.32285">
        <ele>855.7</ele>
        <time>2024-07-25T22:02:06.978Z</time>
      </trkpt>
      <trkpt lat="42.81273" lon="0.32342">
        <ele>860.8</ele>
        <time>2024-07-25T22:02:21.458Z</time>
      </trkpt>
      <trkpt lat="42.81276" lon="0.32356">
        <ele>860.7</ele>
        <time>2024-07-25T22:02:23.776Z</time>
      </trkpt>
      <trkpt lat="42.81287" lon="0.32375">
        <ele>862.5</ele>
        <time>2024-07-25T22:02:29.296Z</time>
        <extensions>
          <visugpx:TrkExtension xmlns:visugpx="https://www.visugpx.com/editgpx/">
            <visugpx:node>1</visugpx:node>
            </visugpx:TrkExtension>
        </extensions>
      </trkpt>
      <trkpt lat="42.81302" lon="0.32403">
        <ele>862.7</ele>
        <time>2024-07-25T22:02:35.105Z</time>
      </trkpt>
      <trkpt lat="42.81315" lon="0.32442">
        <ele>864.9</ele>
        <time>2024-07-25T22:02:43.879Z</time>
      </trkpt>
      <trkpt lat="42.81336" lon="0.32481">
        <ele>866.5</ele>
        <time>2024-07-25T22:02:53.004Z</time>
      </trkpt>
      <trkpt lat="42.81362" lon="0.32559">
        <ele>870.9</ele>
        <time>2024-07-25T22:03:10.552Z</time>
      </trkpt>
      <trkpt lat="42.81374" lon="0.32579">
        <ele>872.7</ele>
        <time>2024-07-25T22:03:16.315Z</time>
      </trkpt>
      <trkpt lat="42.81391" lon="0.32599">
        <ele>872.1</ele>
        <time>2024-07-25T22:03:20.931Z</time>
      </trkpt>
      <trkpt lat="42.81396" lon="0.32607">
        <ele>872.4</ele>
        <time>2024-07-25T22:03:22.874Z</time>
      </trkpt>
      <trkpt lat="42.81407" lon="0.32637">
        <ele>875.3</ele>
        <time>2024-07-25T22:03:30.982Z</time>
      </trkpt>
      <trkpt lat="42.81414" lon="0.32649">
        <ele>875.4</ele>
        <time>2024-07-25T22:03:33.559Z</time>
      </trkpt>
      <trkpt lat="42.81424" lon="0.32657">
        <ele>875.5</ele>
        <time>2024-07-25T22:03:36.213Z</time>
      </trkpt>
      <trkpt lat="42.81431" lon="0.3266">
        <ele>875.8</ele>
        <time>2024-07-25T22:03:38.074Z</time>
      </trkpt>
      <trkpt lat="42.81467" lon="0.3267">
        <ele>877.7</ele>
        <time>2024-07-25T22:03:47.728Z</time>
      </trkpt>
      <trkpt lat="42.81481" lon="0.32671">
        <ele>876.7</ele>
        <time>2024-07-25T22:03:50.462Z</time>
      </trkpt>
      <trkpt lat="42.81488" lon="0.32673">
        <ele>876.5</ele>
        <time>2024-07-25T22:03:51.927Z</time>
      </trkpt>
      <trkpt lat="42.81496" lon="0.32678">
        <ele>876.9</ele>
        <time>2024-07-25T22:03:54.192Z</time>
      </trkpt>
      <trkpt lat="42.81521" lon="0.32709">
        <ele>881.1</ele>
        <time>2024-07-25T22:04:05.587Z</time>
      </trkpt>
      <trkpt lat="42.81555" lon="0.32736">
        <ele>881.6</ele>
        <time>2024-07-25T22:04:14.711Z</time>
      </trkpt>
      <trkpt lat="42.81581" lon="0.32761">
        <ele>883.3</ele>
        <time>2024-07-25T22:04:23.118Z</time>
      </trkpt>
      <trkpt lat="42.8159" lon="0.32773">
        <ele>883.2</ele>
        <time>2024-07-25T22:04:25.857Z</time>
      </trkpt>
      <trkpt lat="42.81599" lon="0.32796">
        <ele>885</ele>
        <time>2024-07-25T22:04:31.654Z</time>
      </trkpt>
      <trkpt lat="42.81616" lon="0.32856">
        <ele>886.3</ele>
        <time>2024-07-25T22:04:43.119Z</time>
      </trkpt>
      <trkpt lat="42.8163" lon="0.32893">
        <ele>889.2</ele>
        <time>2024-07-25T22:04:52.404Z</time>
      </trkpt>
      <trkpt lat="42.81631" lon="0.32917">
        <ele>890.8</ele>
        <time>2024-07-25T22:04:57.687Z</time>
        <extensions>
          <visugpx:TrkExtension xmlns:visugpx="https://www.visugpx.com/editgpx/">
            <visugpx:node>2</visugpx:node>
            </visugpx:TrkExtension>
        </extensions>
      </trkpt>
      <trkpt lat="42.81629" lon="0.32953">
        <ele>894.1</ele>
        <time>2024-07-25T22:05:06.627Z</time>
      </trkpt>
      <trkpt lat="42.81632" lon="0.32981">
        <ele>894.7</ele>
        <time>2024-07-25T22:05:11.693Z</time>
      </trkpt>
      <trkpt lat="42.81639" lon="0.33009">
        <ele>894.6</ele>
        <time>2024-07-25T22:05:16.462Z</time>
      </trkpt>
      <trkpt lat="42.81648" lon="0.33029">
        <ele>895.1</ele>
        <time>2024-07-25T22:05:20.664Z</time>
      </trkpt>
      <trkpt lat="42.81664" lon="0.33058">
        <ele>897.3</ele>
        <time>2024-07-25T22:05:28.421Z</time>
      </trkpt>
      <trkpt lat="42.81676" lon="0.33076">
        <ele>897</ele>
        <time>2024-07-25T22:05:32.200Z</time>
      </trkpt>
      <trkpt lat="42.81683" lon="0.33083">
        <ele>897.6</ele>
        <time>2024-07-25T22:05:34.616Z</time>
      </trkpt>
      <trkpt lat="42.81698" lon="0.33092">
        <ele>899.2</ele>
        <time>2024-07-25T22:05:39.645Z</time>
      </trkpt>
      <trkpt lat="42.8173" lon="0.331">
        <ele>900.3</ele>
        <time>2024-07-25T22:05:47.711Z</time>
      </trkpt>
      <trkpt lat="42.81769" lon="0.33117">
        <ele>904</ele>
        <time>2024-07-25T22:05:59.963Z</time>
      </trkpt>
      <trkpt lat="42.81788" lon="0.33122">
        <ele>906.4</ele>
        <time>2024-07-25T22:06:06.482Z</time>
      </trkpt>
      <trkpt lat="42.8181" lon="0.33121">
        <ele>907.3</ele>
        <time>2024-07-25T22:06:12.065Z</time>
      </trkpt>
      <trkpt lat="42.81847" lon="0.33115">
        <ele>906.9</ele>
        <time>2024-07-25T22:06:20.102Z</time>
      </trkpt>
      <trkpt lat="42.8186" lon="0.33115">
        <ele>906.7</ele>
        <time>2024-07-25T22:06:22.867Z</time>
      </trkpt>
      <trkpt lat="42.81881" lon="0.33118">
        <ele>906.5</ele>
        <time>2024-07-25T22:06:27.440Z</time>
      </trkpt>
      <trkpt lat="42.81901" lon="0.33127">
        <ele>907.2</ele>
        <time>2024-07-25T22:06:32.651Z</time>
      </trkpt>
      <trkpt lat="42.81909" lon="0.33134">
        <ele>907.8</ele>
        <time>2024-07-25T22:06:35.245Z</time>
      </trkpt>
      <trkpt lat="42.81922" lon="0.33152">
        <ele>909</ele>
        <time>2024-07-25T22:06:40.328Z</time>
      </trkpt>
      <trkpt lat="42.81933" lon="0.33174">
        <ele>910.6</ele>
        <time>2024-07-25T22:06:46.006Z</time>
      </trkpt>
      <trkpt lat="42.81937" lon="0.33187">
        <ele>910.7</ele>
        <time>2024-07-25T22:06:48.381Z</time>
      </trkpt>
      <trkpt lat="42.81942" lon="0.33218">
        <ele>911.3</ele>
        <time>2024-07-25T22:06:54.006Z</time>
      </trkpt>
      <trkpt lat="42.81944" lon="0.33261">
        <ele>912.5</ele>
        <time>2024-07-25T22:07:01.947Z</time>
      </trkpt>
      <trkpt lat="42.81944" lon="0.3329">
        <ele>913.5</ele>
        <time>2024-07-25T22:07:07.450Z</time>
      </trkpt>
      <trkpt lat="42.81942" lon="0.33318">
        <ele>914.9</ele>
        <time>2024-07-25T22:07:13.170Z</time>
      </trkpt>
      <trkpt lat="42.81935" lon="0.33393">
        <ele>916.6</ele>
        <time>2024-07-25T22:07:26.780Z</time>
      </trkpt>
      <trkpt lat="42.8193" lon="0.33415">
        <ele>918.5</ele>
        <time>2024-07-25T22:07:32.241Z</time>
        <extensions>
          <visugpx:TrkExtension xmlns:visugpx="https://www.visugpx.com/editgpx/">
            <visugpx:node>3</visugpx:node>
            </visugpx:TrkExtension>
        </extensions>
      </trkpt>
      <trkpt lat="42.8194" lon="0.33427">
        <ele>917.2</ele>
        <time>2024-07-25T22:07:34.840Z</time>
      </trkpt>
      <trkpt lat="42.81938" lon="0.33437">
        <ele>917.9</ele>
        <time>2024-07-25T22:07:37.128Z</time>
      </trkpt>
      <trkpt lat="42.81929" lon="0.33464">
        <ele>920</ele>
        <time>2024-07-25T22:07:43.778Z</time>
      </trkpt>
      <trkpt lat="42.81908" lon="0.33506">
        <ele>919.5</ele>
        <time>2024-07-25T22:07:51.756Z</time>
      </trkpt>
      <trkpt lat="42.81899" lon="0.33531">
        <ele>918.9</ele>
        <time>2024-07-25T22:07:55.922Z</time>
      </trkpt>
      <trkpt lat="42.81894" lon="0.33564">
        <ele>917.9</ele>
        <time>2024-07-25T22:08:00.801Z</time>
      </trkpt>
      <trkpt lat="42.81892" lon="0.33606">
        <ele>917.2</ele>
        <time>2024-07-25T22:08:07.225Z</time>
      </trkpt>
      <trkpt lat="42.81888" lon="0.33641">
        <ele>916.9</ele>
        <time>2024-07-25T22:08:12.816Z</time>
      </trkpt>
      <trkpt lat="42.81882" lon="0.33665">
        <ele>916.3</ele>
        <time>2024-07-25T22:08:16.577Z</time>
      </trkpt>
      <trkpt lat="42.81865" lon="0.33714">
        <ele>916.6</ele>
        <time>2024-07-25T22:08:25.649Z</time>
      </trkpt>
      <trkpt lat="42.81858" lon="0.33749">
        <ele>916.3</ele>
        <time>2024-07-25T22:08:31.380Z</time>
      </trkpt>
      <trkpt lat="42.81857" lon="0.33781">
        <ele>916.4</ele>
        <time>2024-07-25T22:08:36.686Z</time>
      </trkpt>
      <trkpt lat="42.81863" lon="0.33901">
        <ele>919.3</ele>
        <time>2024-07-25T22:08:58.492Z</time>
      </trkpt>
      <trkpt lat="42.81861" lon="0.33924">
        <ele>919</ele>
        <time>2024-07-25T22:09:02.081Z</time>
      </trkpt>
      <trkpt lat="42.81857" lon="0.33941">
        <ele>919.4</ele>
        <time>2024-07-25T22:09:05.294Z</time>
      </trkpt>
      <trkpt lat="42.81854" lon="0.33948">
        <ele>919.3</ele>
        <time>2024-07-25T22:09:06.553Z</time>
      </trkpt>
      <trkpt lat="42.81846" lon="0.33958">
        <ele>918.9</ele>
        <time>2024-07-25T22:09:08.719Z</time>
      </trkpt>
      <trkpt lat="42.81815" lon="0.33973">
        <ele>922.8</ele>
        <time>2024-07-25T22:09:19.585Z</time>
      </trkpt>
      <trkpt lat="42.81804" lon="0.33983">
        <ele>922.8</ele>
        <time>2024-07-25T22:09:22.532Z</time>
      </trkpt>
      <trkpt lat="42.81792" lon="0.33999">
        <ele>924</ele>
        <time>2024-07-25T22:09:27.242Z</time>
      </trkpt>
      <trkpt lat="42.81781" lon="0.3402">
        <ele>924.8</ele>
        <time>2024-07-25T22:09:32.065Z</time>
      </trkpt>
      <trkpt lat="42.81751" lon="0.34097">
        <ele>930.2</ele>
        <time>2024-07-25T22:09:50.816Z</time>
      </trkpt>
      <trkpt lat="42.81738" lon="0.34122">
        <ele>933.1</ele>
        <time>2024-07-25T22:09:58.526Z</time>
      </trkpt>
      <trkpt lat="42.81698" lon="0.34192">
        <ele>936.4</ele>
        <time>2024-07-25T22:10:15.571Z</time>
      </trkpt>
      <trkpt lat="42.81641" lon="0.34274">
        <ele>943.4</ele>
        <time>2024-07-25T22:10:39.872Z</time>
      </trkpt>
      <trkpt lat="42.81619" lon="0.34316">
        <ele>950</ele>
        <time>2024-07-25T22:10:55.235Z</time>
        <extensions>
          <visugpx:TrkExtension xmlns:visugpx="https://www.visugpx.com/editgpx/">
            <visugpx:node>4</visugpx:node>
            </visugpx:TrkExtension>
        </extensions>
      </trkpt>
      <trkpt lat="42.81616" lon="0.34323">
        <ele>950.5</ele>
        <time>2024-07-25T22:10:56.977Z</time>
      </trkpt>
      <trkpt lat="42.81616" lon="0.3433">
        <ele>950.1</ele>
        <time>2024-07-25T22:10:57.978Z</time>
      </trkpt>
      <trkpt lat="42.81618" lon="0.34335">
        <ele>949.4</ele>
        <time>2024-07-25T22:10:58.793Z</time>
      </trkpt>
      <trkpt lat="42.81627" lon="0.34342">
        <ele>948.8</ele>
        <time>2024-07-25T22:11:00.814Z</time>
      </trkpt>
      <trkpt lat="42.81637" lon="0.34346">
        <ele>950.3</ele>
        <time>2024-07-25T22:11:04.588Z</time>
      </trkpt>
      <trkpt lat="42.81648" lon="0.34348">
        <ele>951.4</ele>
        <time>2024-07-25T22:11:08.012Z</time>
      </trkpt>
      <trkpt lat="42.81705" lon="0.34355">
        <ele>953.6</ele>
        <time>2024-07-25T22:11:22.413Z</time>
      </trkpt>
      <trkpt lat="42.81713" lon="0.34359">
        <ele>955</ele>
        <time>2024-07-25T22:11:25.742Z</time>
      </trkpt>
      <trkpt lat="42.81715" lon="0.34362">
        <ele>955.6</ele>
        <time>2024-07-25T22:11:27.084Z</time>
      </trkpt>
      <trkpt lat="42.81715" lon="0.34371">
        <ele>957.2</ele>
        <time>2024-07-25T22:11:30.587Z</time>
        <extensions>
          <visugpx:TrkExtension xmlns:visugpx="https://www.visugpx.com/editgpx/">
            <visugpx:node>5</visugpx:node>
            </visugpx:TrkExtension>
        </extensions>
      </trkpt>
      <trkpt lat="42.81712" lon="0.34377">
        <ele>957.9</ele>
        <time>2024-07-25T22:11:32.430Z</time>
      </trkpt>
      <trkpt lat="42.81701" lon="0.34386">
        <ele>958.3</ele>
        <time>2024-07-25T22:11:35.584Z</time>
      </trkpt>
      <trkpt lat="42.81695" lon="0.34389">
        <ele>958.1</ele>
        <time>2024-07-25T22:11:36.880Z</time>
      </trkpt>
      <trkpt lat="42.81681" lon="0.34392">
        <ele>959.6</ele>
        <time>2024-07-25T22:11:41.356Z</time>
      </trkpt>
      <trkpt lat="42.81666" lon="0.34389">
        <ele>960.1</ele>
        <time>2024-07-25T22:11:45.104Z</time>
      </trkpt>
      <trkpt lat="42.81642" lon="0.34376">
        <ele>960.3</ele>
        <time>2024-07-25T22:11:51.000Z</time>
      </trkpt>
      <trkpt lat="42.81637" lon="0.34375">
        <ele>960.3</ele>
        <time>2024-07-25T22:11:52.127Z</time>
      </trkpt>
      <trkpt lat="42.81633" lon="0.34376">
        <ele>960.4</ele>
        <time>2024-07-25T22:11:53.106Z</time>
      </trkpt>
      <trkpt lat="42.8163" lon="0.34379">
        <ele>961.7</ele>
        <time>2024-07-25T22:11:56.182Z</time>
      </trkpt>
      <trkpt lat="42.8163" lon="0.34392">
        <ele>967.5</ele>
        <time>2024-07-25T22:12:07.342Z</time>
        <extensions>
          <visugpx:TrkExtension xmlns:visugpx="https://www.visugpx.com/editgpx/">
            <visugpx:node>6</visugpx:node>
            </visugpx:TrkExtension>
        </extensions>
      </trkpt>
      <trkpt lat="42.81635" lon="0.34401">
        <ele>968.2</ele>
        <time>2024-07-25T22:12:09.771Z</time>
      </trkpt>
      <trkpt lat="42.81663" lon="0.34426">
        <ele>968.8</ele>
        <time>2024-07-25T22:12:17.660Z</time>
      </trkpt>
      <trkpt lat="42.81691" lon="0.34445">
        <ele>971.6</ele>
        <time>2024-07-25T22:12:26.992Z</time>
      </trkpt>
      <trkpt lat="42.81708" lon="0.34453">
        <ele>974.6</ele>
        <time>2024-07-25T22:12:34.085Z</time>
      </trkpt>
      <trkpt lat="42.81718" lon="0.34456">
        <ele>976</ele>
        <time>2024-07-25T22:12:37.697Z</time>
      </trkpt>
      <trkpt lat="42.81727" lon="0.34457">
        <ele>977.2</ele>
        <time>2024-07-25T22:12:40.838Z</time>
      </trkpt>
      <trkpt lat="42.81744" lon="0.34453">
        <ele>978.5</ele>
        <time>2024-07-25T22:12:45.742Z</time>
      </trkpt>
      <trkpt lat="42.81769" lon="0.34437">
        <ele>980.6</ele>
        <time>2024-07-25T22:12:53.612Z</time>
      </trkpt>
      <trkpt lat="42.81786" lon="0.34421">
        <ele>983</ele>
        <time>2024-07-25T22:13:00.378Z</time>
      </trkpt>
      <trkpt lat="42.81792" lon="0.34413">
        <ele>983.9</ele>
        <time>2024-07-25T22:13:03.042Z</time>
      </trkpt>
      <trkpt lat="42.81805" lon="0.34391">
        <ele>986.1</ele>
        <time>2024-07-25T22:13:09.593Z</time>
      </trkpt>
      <trkpt lat="42.81832" lon="0.34334">
        <ele>989.7</ele>
        <time>2024-07-25T22:13:23.599Z</time>
      </trkpt>
      <trkpt lat="42.81842" lon="0.3432">
        <ele>990.6</ele>
        <time>2024-07-25T22:13:27.506Z</time>
      </trkpt>
      <trkpt lat="42.81852" lon="0.34311">
        <ele>991.8</ele>
        <time>2024-07-25T22:13:31.215Z</time>
      </trkpt>
      <trkpt lat="42.81858" lon="0.34308">
        <ele>992.7</ele>
        <time>2024-07-25T22:13:33.503Z</time>
      </trkpt>
      <trkpt lat="42.81868" lon="0.34308">
        <ele>993.5</ele>
        <time>2024-07-25T22:13:36.391Z</time>
        <extensions>
          <visugpx:TrkExtension xmlns:visugpx="https://www.visugpx.com/editgpx/">
            <visugpx:node>7</visugpx:node>
            </visugpx:TrkExtension>
        </extensions>
      </trkpt>
      <trkpt lat="42.81873" lon="0.3431">
        <ele>994</ele>
        <time>2024-07-25T22:13:37.981Z</time>
      </trkpt>
      <trkpt lat="42.81882" lon="0.34318">
        <ele>995.7</ele>
        <time>2024-07-25T22:13:42.084Z</time>
      </trkpt>
      <trkpt lat="42.81879" lon="0.34329">
        <ele>998.1</ele>
        <time>2024-07-25T22:13:47.392Z</time>
      </trkpt>
      <trkpt lat="42.81876" lon="0.34335">
        <ele>999.4</ele>
        <time>2024-07-25T22:13:50.238Z</time>
      </trkpt>
      <trkpt lat="42.8187" lon="0.34338">
        <ele>1000.2</ele>
        <time>2024-07-25T22:13:52.400Z</time>
      </trkpt>
      <trkpt lat="42.81858" lon="0.34338">
        <ele>999.3</ele>
        <time>2024-07-25T22:13:54.741Z</time>
      </trkpt>
      <trkpt lat="42.81848" lon="0.34343">
        <ele>997.5</ele>
        <time>2024-07-25T22:13:56.818Z</time>
      </trkpt>
      <trkpt lat="42.81844" lon="0.34352">
        <ele>998.8</ele>
        <time>2024-07-25T22:13:59.881Z</time>
      </trkpt>
      <trkpt lat="42.81804" lon="0.34494">
        <ele>1008.5</ele>
        <time>2024-07-25T22:14:32.877Z</time>
      </trkpt>
      <trkpt lat="42.81804" lon="0.34505">
        <ele>1010.3</ele>
        <time>2024-07-25T22:14:36.839Z</time>
      </trkpt>
      <trkpt lat="42.81797" lon="0.34525">
        <ele>1011.9</ele>
        <time>2024-07-25T22:14:41.841Z</time>
      </trkpt>
      <trkpt lat="42.81775" lon="0.34563">
        <ele>1015.6</ele>
        <time>2024-07-25T22:14:52.991Z</time>
      </trkpt>
      <trkpt lat="42.81755" lon="0.34602">
        <ele>1020.2</ele>
        <time>2024-07-25T22:15:05.083Z</time>
      </trkpt>
      <trkpt lat="42.81749" lon="0.34607">
        <ele>1020.3</ele>
        <time>2024-07-25T22:15:06.721Z</time>
        <extensions>
          <visugpx:TrkExtension xmlns:visugpx="https://www.visugpx.com/editgpx/">
            <visugpx:node>8</visugpx:node>
            </visugpx:TrkExtension>
        </extensions>
      </trkpt>
      <trkpt lat="42.81726" lon="0.34608">
        <ele>1023.7</ele>
        <time>2024-07-25T22:15:15.173Z</time>
      </trkpt>
      <trkpt lat="42.81714" lon="0.34614">
        <ele>1025.1</ele>
        <time>2024-07-25T22:15:19.263Z</time>
      </trkpt>
      <trkpt lat="42.81672" lon="0.34644">
        <ele>1030.4</ele>
        <time>2024-07-25T22:15:34.553Z</time>
      </trkpt>
      <trkpt lat="42.81658" lon="0.34652">
        <ele>1032.3</ele>
        <time>2024-07-25T22:15:39.688Z</time>
      </trkpt>
      <trkpt lat="42.81641" lon="0.34659">
        <ele>1034.1</ele>
        <time>2024-07-25T22:15:45.209Z</time>
      </trkpt>
      <trkpt lat="42.8159" lon="0.34675">
        <ele>1038.1</ele>
        <time>2024-07-25T22:16:00.141Z</time>
      </trkpt>
      <trkpt lat="42.81555" lon="0.34696">
        <ele>1042.3</ele>
        <time>2024-07-25T22:16:12.388Z</time>
      </trkpt>
      <trkpt lat="42.81541" lon="0.34708">
        <ele>1044.2</ele>
        <time>2024-07-25T22:16:17.780Z</time>
      </trkpt>
      <trkpt lat="42.81519" lon="0.34739">
        <ele>1048.7</ele>
        <time>2024-07-25T22:16:29.167Z</time>
      </trkpt>
      <trkpt lat="42.81488" lon="0.34763">
        <ele>1052.3</ele>
        <time>2024-07-25T22:16:40.235Z</time>
      </trkpt>
      <trkpt lat="42.81464" lon="0.34772">
        <ele>1053.9</ele>
        <time>2024-07-25T22:16:47.053Z</time>
        <extensions>
          <visugpx:TrkExtension xmlns:visugpx="https://www.visugpx.com/editgpx/">
            <visugpx:node>9</visugpx:node>
            </visugpx:TrkExtension>
        </extensions>
      </trkpt>
      <trkpt lat="42.81381" lon="0.34798">
        <ele>1061.5</ele>
        <time>2024-07-25T22:17:12.439Z</time>
      </trkpt>
      <trkpt lat="42.81366" lon="0.348">
        <ele>1063.5</ele>
        <time>2024-07-25T22:17:17.677Z</time>
      </trkpt>
      <trkpt lat="42.81305" lon="0.34795">
        <ele>1068.8</ele>
        <time>2024-07-25T22:17:35.737Z</time>
      </trkpt>
      <trkpt lat="42.81267" lon="0.34797">
        <ele>1072.4</ele>
        <time>2024-07-25T22:17:47.287Z</time>
      </trkpt>
      <trkpt lat="42.81243" lon="0.34796">
        <ele>1074.6</ele>
        <time>2024-07-25T22:17:54.503Z</time>
      </trkpt>
      <trkpt lat="42.81224" lon="0.34793">
        <ele>1076.9</ele>
        <time>2024-07-25T22:18:00.860Z</time>
      </trkpt>
      <trkpt lat="42.81189" lon="0.34778">
        <ele>1080.2</ele>
        <time>2024-07-25T22:18:11.823Z</time>
      </trkpt>
      <trkpt lat="42.81134" lon="0.34726">
        <ele>1086</ele>
        <time>2024-07-25T22:18:31.598Z</time>
      </trkpt>
      <trkpt lat="42.81125" lon="0.3472">
        <ele>1086.8</ele>
        <time>2024-07-25T22:18:34.490Z</time>
      </trkpt>
      <trkpt lat="42.81119" lon="0.34721">
        <ele>1087.7</ele>
        <time>2024-07-25T22:18:36.719Z</time>
      </trkpt>
      <trkpt lat="42.81114" lon="0.34727">
        <ele>1089.1</ele>
        <time>2024-07-25T22:18:39.826Z</time>
        <extensions>
          <visugpx:TrkExtension xmlns:visugpx="https://www.visugpx.com/editgpx/">
            <visugpx:node>10</visugpx:node>
            </visugpx:TrkExtension>
        </extensions>
      </trkpt>
      <trkpt lat="42.81112" lon="0.34731">
        <ele>1090.1</ele>
        <time>2024-07-25T22:18:42.042Z</time>
      </trkpt>
      <trkpt lat="42.81113" lon="0.34742">
        <ele>1091.5</ele>
        <time>2024-07-25T22:18:45.315Z</time>
      </trkpt>
      <trkpt lat="42.81121" lon="0.34768">
        <ele>1094.3</ele>
        <time>2024-07-25T22:18:52.574Z</time>
      </trkpt>
      <trkpt lat="42.81144" lon="0.34817">
        <ele>1097.9</ele>
        <time>2024-07-25T22:19:05.083Z</time>
      </trkpt>
      <trkpt lat="42.8117" lon="0.34863">
        <ele>1101.5</ele>
        <time>2024-07-25T22:19:17.577Z</time>
      </trkpt>
      <trkpt lat="42.8124" lon="0.34965">
        <ele>1110.8</ele>
        <time>2024-07-25T22:19:48.281Z</time>
      </trkpt>
      <trkpt lat="42.81297" lon="0.35031">
        <ele>1115</ele>
        <time>2024-07-25T22:20:08.221Z</time>
      </trkpt>
      <trkpt lat="42.81299" lon="0.3504">
        <ele>1116.9</ele>
        <time>2024-07-25T22:20:12.415Z</time>
      </trkpt>
      <trkpt lat="42.81297" lon="0.35048">
        <ele>1119.1</ele>
        <time>2024-07-25T22:20:17.657Z</time>
      </trkpt>
      <trkpt lat="42.8129" lon="0.35048">
        <ele>1119.9</ele>
        <time>2024-07-25T22:20:19.934Z</time>
      </trkpt>
      <trkpt lat="42.81277" lon="0.35043">
        <ele>1120.5</ele>
        <time>2024-07-25T22:20:23.400Z</time>
        <extensions>
          <visugpx:TrkExtension xmlns:visugpx="https://www.visugpx.com/editgpx/">
            <visugpx:node>11</visugpx:node>
            </visugpx:TrkExtension>
        </extensions>
      </trkpt>
      <trkpt lat="42.81267" lon="0.35039">
        <ele>1121.4</ele>
        <time>2024-07-25T22:20:26.476Z</time>
      </trkpt>
      <trkpt lat="42.81239" lon="0.35021">
        <ele>1122.8</ele>
        <time>2024-07-25T22:20:34.439Z</time>
      </trkpt>
      <trkpt lat="42.81168" lon="0.3497">
        <ele>1129.2</ele>
        <time>2024-07-25T22:20:57.597Z</time>
      </trkpt>
      <trkpt lat="42.8112" lon="0.34944">
        <ele>1134.6</ele>
        <time>2024-07-25T22:21:13.834Z</time>
      </trkpt>
      <trkpt lat="42.81114" lon="0.34942">
        <ele>1135</ele>
        <time>2024-07-25T22:21:15.528Z</time>
      </trkpt>
      <trkpt lat="42.81108" lon="0.34944">
        <ele>1135.9</ele>
        <time>2024-07-25T22:21:17.780Z</time>
      </trkpt>
      <trkpt lat="42.81101" lon="0.34955">
        <ele>1137.1</ele>
        <time>2024-07-25T22:21:21.232Z</time>
        <extensions>
          <visugpx:TrkExtension xmlns:visugpx="https://www.visugpx.com/editgpx/">
            <visugpx:node>12</visugpx:node>
            </visugpx:TrkExtension>
        </extensions>
      </trkpt>
      <trkpt lat="42.81102" lon="0.34973">
        <ele>1139.1</ele>
        <time>2024-07-25T22:21:26.155Z</time>
      </trkpt>
      <trkpt lat="42.81107" lon="0.34983">
        <ele>1139.8</ele>
        <time>2024-07-25T22:21:28.709Z</time>
      </trkpt>
      <trkpt lat="42.81118" lon="0.34998">
        <ele>1140.8</ele>
        <time>2024-07-25T22:21:32.971Z</time>
      </trkpt>
      <trkpt lat="42.81164" lon="0.35044">
        <ele>1142.9</ele>
        <time>2024-07-25T22:21:47.251Z</time>
      </trkpt>
      <trkpt lat="42.81186" lon="0.35062">
        <ele>1142.7</ele>
        <time>2024-07-25T22:21:52.836Z</time>
      </trkpt>
      <trkpt lat="42.81203" lon="0.35079">
        <ele>1143.7</ele>
        <time>2024-07-25T22:21:58.298Z</time>
      </trkpt>
      <trkpt lat="42.81207" lon="0.35089">
        <ele>1144.9</ele>
        <time>2024-07-25T22:22:01.321Z</time>
        <extensions>
          <visugpx:TrkExtension xmlns:visugpx="https://www.visugpx.com/editgpx/">
            <visugpx:node>13</visugpx:node>
            </visugpx:TrkExtension>
        </extensions>
      </trkpt>
      <trkpt lat="42.81209" lon="0.35095">
        <ele>1145.9</ele>
        <time>2024-07-25T22:22:03.546Z</time>
      </trkpt>
      <trkpt lat="42.81208" lon="0.35104">
        <ele>1147.3</ele>
        <time>2024-07-25T22:22:06.655Z</time>
      </trkpt>
      <trkpt lat="42.81204" lon="0.3511">
        <ele>1148.2</ele>
        <time>2024-07-25T22:22:08.868Z</time>
      </trkpt>
      <trkpt lat="42.8118" lon="0.35121">
        <ele>1149.9</ele>
        <time>2024-07-25T22:22:15.870Z</time>
      </trkpt>
      <trkpt lat="42.8118" lon="0.35132">
        <ele>1151.5</ele>
        <time>2024-07-25T22:22:19.462Z</time>
      </trkpt>
      <trkpt lat="42.81175" lon="0.35156">
        <ele>1153.9</ele>
        <time>2024-07-25T22:22:25.788Z</time>
      </trkpt>
      <trkpt lat="42.81171" lon="0.35163">
        <ele>1154.6</ele>
        <time>2024-07-25T22:22:27.855Z</time>
      </trkpt>
      <trkpt lat="42.81166" lon="0.35164">
        <ele>1154.9</ele>
        <time>2024-07-25T22:22:29.217Z</time>
        <extensions>
          <visugpx:TrkExtension xmlns:visugpx="https://www.visugpx.com/editgpx/">
            <visugpx:node>14</visugpx:node>
            </visugpx:TrkExtension>
        </extensions>
      </trkpt>
      <trkpt lat="42.81162" lon="0.35163">
        <ele>1155.3</ele>
        <time>2024-07-25T22:22:30.468Z</time>
      </trkpt>
      <trkpt lat="42.81149" lon="0.35154">
        <ele>1156.3</ele>
        <time>2024-07-25T22:22:34.520Z</time>
      </trkpt>
      <trkpt lat="42.81118" lon="0.35144">
        <ele>1159.7</ele>
        <time>2024-07-25T22:22:44.611Z</time>
      </trkpt>
      <trkpt lat="42.81111" lon="0.35145">
        <ele>1160.7</ele>
        <time>2024-07-25T22:22:47.143Z</time>
      </trkpt>
      <trkpt lat="42.81097" lon="0.35161">
        <ele>1163.9</ele>
        <time>2024-07-25T22:22:54.581Z</time>
      </trkpt>
      <trkpt lat="42.81081" lon="0.35175">
        <ele>1167.2</ele>
        <time>2024-07-25T22:23:02.274Z</time>
      </trkpt>
      <trkpt lat="42.81058" lon="0.35191">
        <ele>1169.5</ele>
        <time>2024-07-25T22:23:09.967Z</time>
      </trkpt>
      <trkpt lat="42.81049" lon="0.3519">
        <ele>1168.3</ele>
        <time>2024-07-25T22:23:11.728Z</time>
        <extensions>
          <visugpx:TrkExtension xmlns:visugpx="https://www.visugpx.com/editgpx/">
            <visugpx:node>15</visugpx:node>
            </visugpx:TrkExtension>
        </extensions>
      </trkpt>
      <trkpt lat="42.81058" lon="0.35191">
        <ele>1169.5</ele>
        <time>2024-07-25T22:23:14.869Z</time>
      </trkpt>
      <trkpt lat="42.81065" lon="0.35185">
        <ele>1168.6</ele>
        <time>2024-07-25T22:23:16.482Z</time>
      </trkpt>
      <trkpt lat="42.81078" lon="0.35196">
        <ele>1170.2</ele>
        <time>2024-07-25T22:23:21.292Z</time>
      </trkpt>
      <trkpt lat="42.81086" lon="0.35214">
        <ele>1172.5</ele>
        <time>2024-07-25T22:23:26.988Z</time>
      </trkpt>
      <trkpt lat="42.81097" lon="0.35251">
        <ele>1175.5</ele>
        <time>2024-07-25T22:23:36.127Z</time>
      </trkpt>
      <trkpt lat="42.81114" lon="0.35265">
        <ele>1176.5</ele>
        <time>2024-07-25T22:23:41.323Z</time>
      </trkpt>
      <trkpt lat="42.81139" lon="0.35297">
        <ele>1180.4</ele>
        <time>2024-07-25T22:23:52.458Z</time>
      </trkpt>
      <trkpt lat="42.81162" lon="0.35322">
        <ele>1184.3</ele>
        <time>2024-07-25T22:24:02.679Z</time>
      </trkpt>
      <trkpt lat="42.81169" lon="0.35327">
        <ele>1185.6</ele>
        <time>2024-07-25T22:24:05.768Z</time>
      </trkpt>
      <trkpt lat="42.81205" lon="0.35383">
        <ele>1197.2</ele>
        <time>2024-07-25T22:24:31.468Z</time>
      </trkpt>
      <trkpt lat="42.8123" lon="0.35415">
        <ele>1203.7</ele>
        <time>2024-07-25T22:24:46.223Z</time>
      </trkpt>
      <trkpt lat="42.81267" lon="0.35439">
        <ele>1203.2</ele>
        <time>2024-07-25T22:24:55.022Z</time>
      </trkpt>
      <trkpt lat="42.81279" lon="0.35442">
        <ele>1201.2</ele>
        <time>2024-07-25T22:24:57.402Z</time>
      </trkpt>
      <trkpt lat="42.81305" lon="0.35471">
        <ele>1204.8</ele>
        <time>2024-07-25T22:25:08.060Z</time>
      </trkpt>
      <trkpt lat="42.81317" lon="0.3548">
        <ele>1207.3</ele>
        <time>2024-07-25T22:25:13.795Z</time>
      </trkpt>
      <trkpt lat="42.81319" lon="0.3548">
        <ele>1207.2</ele>
        <time>2024-07-25T22:25:14.185Z</time>
        <extensions>
          <visugpx:TrkExtension xmlns:visugpx="https://www.visugpx.com/editgpx/">
            <visugpx:node>16</visugpx:node>
            </visugpx:TrkExtension>
        </extensions>
      </trkpt>
      <trkpt lat="42.81329" lon="0.3548">
        <ele>1207</ele>
        <time>2024-07-25T22:25:16.283Z</time>
      </trkpt>
      <trkpt lat="42.81349" lon="0.35472">
        <ele>1208.9</ele>
        <time>2024-07-25T22:25:22.537Z</time>
      </trkpt>
      <trkpt lat="42.81394" lon="0.35438">
        <ele>1214.2</ele>
        <time>2024-07-25T22:25:38.624Z</time>
      </trkpt>
      <trkpt lat="42.81465" lon="0.35377">
        <ele>1223.3</ele>
        <time>2024-07-25T22:26:05.370Z</time>
      </trkpt>
      <trkpt lat="42.81584" lon="0.35269">
        <ele>1236.7</ele>
        <time>2024-07-25T22:26:48.650Z</time>
      </trkpt>
      <trkpt lat="42.81621" lon="0.35245">
        <ele>1241.1</ele>
        <time>2024-07-25T22:27:01.660Z</time>
        <extensions>
          <visugpx:TrkExtension xmlns:visugpx="https://www.visugpx.com/editgpx/">
            <visugpx:node>17</visugpx:node>
            </visugpx:TrkExtension>
        </extensions>
      </trkpt>
      <trkpt lat="42.81631" lon="0.3524">
        <ele>1241.7</ele>
        <time>2024-07-25T22:27:04.501Z</time>
      </trkpt>
      <trkpt lat="42.81643" lon="0.35238">
        <ele>1242.9</ele>
        <time>2024-07-25T22:27:08.232Z</time>
      </trkpt>
      <trkpt lat="42.81659" lon="0.35239">
        <ele>1244.2</ele>
        <time>2024-07-25T22:27:12.876Z</time>
      </trkpt>
      <trkpt lat="42.81678" lon="0.35243">
        <ele>1245.8</ele>
        <time>2024-07-25T22:27:18.490Z</time>
      </trkpt>
      <trkpt lat="42.817" lon="0.35251">
        <ele>1247.3</ele>
        <time>2024-07-25T22:27:24.760Z</time>
      </trkpt>
      <trkpt lat="42.81722" lon="0.35265">
        <ele>1248.4</ele>
        <time>2024-07-25T22:27:31.007Z</time>
      </trkpt>
      <trkpt lat="42.81737" lon="0.35278">
        <ele>1250.4</ele>
        <time>2024-07-25T22:27:36.754Z</time>
      </trkpt>
      <trkpt lat="42.81744" lon="0.35288">
        <ele>1251.3</ele>
        <time>2024-07-25T22:27:39.771Z</time>
        <extensions>
          <visugpx:TrkExtension xmlns:visugpx="https://www.visugpx.com/editgpx/">
            <visugpx:node>18</visugpx:node>
            </visugpx:TrkExtension>
        </extensions>
      </trkpt>
      <trkpt lat="42.81745" lon="0.35292">
        <ele>1252.1</ele>
        <time>2024-07-25T22:27:41.526Z</time>
      </trkpt>
      <trkpt lat="42.81743" lon="0.353">
        <ele>1254.3</ele>
        <time>2024-07-25T22:27:46.768Z</time>
      </trkpt>
      <trkpt lat="42.81739" lon="0.35302">
        <ele>1255.6</ele>
        <time>2024-07-25T22:27:49.699Z</time>
      </trkpt>
      <trkpt lat="42.81735" lon="0.353">
        <ele>1255.9</ele>
        <time>2024-07-25T22:27:50.891Z</time>
      </trkpt>
      <trkpt lat="42.81721" lon="0.35284">
        <ele>1254.8</ele>
        <time>2024-07-25T22:27:54.454Z</time>
      </trkpt>
      <trkpt lat="42.81709" lon="0.35275">
        <ele>1254</ele>
        <time>2024-07-25T22:27:57.125Z</time>
      </trkpt>
      <trkpt lat="42.81693" lon="0.35268">
        <ele>1253.9</ele>
        <time>2024-07-25T22:28:00.803Z</time>
      </trkpt>
      <trkpt lat="42.81678" lon="0.35266">
        <ele>1254.1</ele>
        <time>2024-07-25T22:28:04.304Z</time>
      </trkpt>
      <trkpt lat="42.81663" lon="0.35268">
        <ele>1255.1</ele>
        <time>2024-07-25T22:28:08.461Z</time>
      </trkpt>
      <trkpt lat="42.81649" lon="0.35275">
        <ele>1256.2</ele>
        <time>2024-07-25T22:28:12.677Z</time>
      </trkpt>
      <trkpt lat="42.81635" lon="0.35286">
        <ele>1257.9</ele>
        <time>2024-07-25T22:28:17.769Z</time>
      </trkpt>
      <trkpt lat="42.81621" lon="0.353">
        <ele>1259.9</ele>
        <time>2024-07-25T22:28:23.436Z</time>
      </trkpt>
      <trkpt lat="42.81603" lon="0.35326">
        <ele>1262.4</ele>
        <time>2024-07-25T22:28:31.420Z</time>
      </trkpt>
      <trkpt lat="42.81569" lon="0.35399">
        <ele>1271.1</ele>
        <time>2024-07-25T22:28:53.828Z</time>
      </trkpt>
      <trkpt lat="42.81539" lon="0.35451">
        <ele>1275.8</ele>
        <time>2024-07-25T22:29:08.679Z</time>
      </trkpt>
      <trkpt lat="42.81524" lon="0.35472">
        <ele>1277.7</ele>
        <time>2024-07-25T22:29:15.069Z</time>
      </trkpt>
      <trkpt lat="42.81497" lon="0.35496">
        <ele>1281.1</ele>
        <time>2024-07-25T22:29:25.235Z</time>
        <extensions>
          <visugpx:TrkExtension xmlns:visugpx="https://www.visugpx.com/editgpx/">
            <visugpx:node>19</visugpx:node>
            </visugpx:TrkExtension>
        </extensions>
      </trkpt>
      <trkpt lat="42.81463" lon="0.35526">
        <ele>1282.2</ele>
        <time>2024-07-25T22:29:35.065Z</time>
      </trkpt>
      <trkpt lat="42.81457" lon="0.35533">
        <ele>1282.7</ele>
        <time>2024-07-25T22:29:37.221Z</time>
      </trkpt>
      <trkpt lat="42.81445" lon="0.35553">
        <ele>1285.3</ele>
        <time>2024-07-25T22:29:43.917Z</time>
      </trkpt>
      <trkpt lat="42.81436" lon="0.35577">
        <ele>1288.4</ele>
        <time>2024-07-25T22:29:51.427Z</time>
      </trkpt>
      <trkpt lat="42.81431" lon="0.35608">
        <ele>1293.1</ele>
        <time>2024-07-25T22:30:01.937Z</time>
      </trkpt>
      <trkpt lat="42.81431" lon="0.35634">
        <ele>1297.1</ele>
        <time>2024-07-25T22:30:10.818Z</time>
      </trkpt>
      <trkpt lat="42.81422" lon="0.35705">
        <ele>1301.7</ele>
        <time>2024-07-25T22:30:26.454Z</time>
      </trkpt>
      <trkpt lat="42.81415" lon="0.35729">
        <ele>1299.6</ele>
        <time>2024-07-25T22:30:30.149Z</time>
      </trkpt>
      <trkpt lat="42.81411" lon="0.35737">
        <ele>1300.2</ele>
        <time>2024-07-25T22:30:32.232Z</time>
      </trkpt>
      <trkpt lat="42.81407" lon="0.35742">
        <ele>1300.7</ele>
        <time>2024-07-25T22:30:33.866Z</time>
      </trkpt>
      <trkpt lat="42.81405" lon="0.35743">
        <ele>1300.6</ele>
        <time>2024-07-25T22:30:34.281Z</time>
        <extensions>
          <visugpx:TrkExtension xmlns:visugpx="https://www.visugpx.com/editgpx/">
            <visugpx:node>20</visugpx:node>
            </visugpx:TrkExtension>
        </extensions>
      </trkpt>
      <trkpt lat="42.81399" lon="0.35744">
        <ele>1300.4</ele>
        <time>2024-07-25T22:30:35.500Z</time>
      </trkpt>
      <trkpt lat="42.81385" lon="0.35739">
        <ele>1298.3</ele>
        <time>2024-07-25T22:30:38.323Z</time>
      </trkpt>
      <trkpt lat="42.81371" lon="0.3573">
        <ele>1297.3</ele>
        <time>2024-07-25T22:30:41.342Z</time>
      </trkpt>
      <trkpt lat="42.81349" lon="0.35722">
        <ele>1298.8</ele>
        <time>2024-07-25T22:30:47.612Z</time>
      </trkpt>
      <trkpt lat="42.81332" lon="0.35721">
        <ele>1303.7</ele>
        <time>2024-07-25T22:30:58.512Z</time>
      </trkpt>
      <trkpt lat="42.81304" lon="0.35714">
        <ele>1308.4</ele>
        <time>2024-07-25T22:31:09.668Z</time>
      </trkpt>
      <trkpt lat="42.81268" lon="0.35709">
        <ele>1311.6</ele>
        <time>2024-07-25T22:31:20.424Z</time>
      </trkpt>
      <trkpt lat="42.81259" lon="0.35709">
        <ele>1311.9</ele>
        <time>2024-07-25T22:31:22.652Z</time>
      </trkpt>
      <trkpt lat="42.81252" lon="0.35712">
        <ele>1313</ele>
        <time>2024-07-25T22:31:25.369Z</time>
      </trkpt>
      <trkpt lat="42.81241" lon="0.35724">
        <ele>1314</ele>
        <time>2024-07-25T22:31:29.315Z</time>
        <extensions>
          <visugpx:TrkExtension xmlns:visugpx="https://www.visugpx.com/editgpx/">
            <visugpx:node>21</visugpx:node>
            </visugpx:TrkExtension>
        </extensions>
      </trkpt>
      <trkpt lat="42.81236" lon="0.35733">
        <ele>1315.8</ele>
        <time>2024-07-25T22:31:33.290Z</time>
      </trkpt>
      <trkpt lat="42.81189" lon="0.35857">
        <ele>1327.5</ele>
        <time>2024-07-25T22:32:06.601Z</time>
      </trkpt>
      <trkpt lat="42.8115" lon="0.35941">
        <ele>1336.4</ele>
        <time>2024-07-25T22:32:30.993Z</time>
      </trkpt>
      <trkpt lat="42.81109" lon="0.36021">
        <ele>1344.3</ele>
        <time>2024-07-25T22:32:53.963Z</time>
      </trkpt>
      <trkpt lat="42.81089" lon="0.36046">
        <ele>1344.7</ele>
        <time>2024-07-25T22:33:00.296Z</time>
      </trkpt>
      <trkpt lat="42.81067" lon="0.36064">
        <ele>1344.4</ele>
        <time>2024-07-25T22:33:05.814Z</time>
      </trkpt>
      <trkpt lat="42.81047" lon="0.36091">
        <ele>1349.6</ele>
        <time>2024-07-25T22:33:17.702Z</time>
      </trkpt>
      <trkpt lat="42.80998" lon="0.36141">
        <ele>1354.3</ele>
        <time>2024-07-25T22:33:35.188Z</time>
      </trkpt>
      <trkpt lat="42.80981" lon="0.36163">
        <ele>1357.7</ele>
        <time>2024-07-25T22:33:43.712Z</time>
      </trkpt>
      <trkpt lat="42.80962" lon="0.36181">
        <ele>1359.4</ele>
        <time>2024-07-25T22:33:50.248Z</time>
      </trkpt>
      <trkpt lat="42.80943" lon="0.36204">
        <ele>1362.6</ele>
        <time>2024-07-25T22:33:58.867Z</time>
      </trkpt>
      <trkpt lat="42.80921" lon="0.36238">
        <ele>1368</ele>
        <time>2024-07-25T22:34:11.766Z</time>
      </trkpt>
      <trkpt lat="42.80889" lon="0.36271">
        <ele>1370.6</ele>
        <time>2024-07-25T22:34:22.776Z</time>
      </trkpt>
      <trkpt lat="42.80878" lon="0.36279">
        <ele>1371.6</ele>
        <time>2024-07-25T22:34:26.379Z</time>
      </trkpt>
      <trkpt lat="42.8086" lon="0.36287">
        <ele>1371.5</ele>
        <time>2024-07-25T22:34:30.532Z</time>
        <extensions>
          <visugpx:TrkExtension xmlns:visugpx="https://www.visugpx.com/editgpx/">
            <visugpx:node>22</visugpx:node>
            </visugpx:TrkExtension>
        </extensions>
      </trkpt>
      <trkpt lat="42.80804" lon="0.36312">
        <ele>1377</ele>
        <time>2024-07-25T22:34:48.347Z</time>
      </trkpt>
      <trkpt lat="42.80771" lon="0.36333">
        <ele>1382.9</ele>
        <time>2024-07-25T22:35:02.453Z</time>
      </trkpt>
      <trkpt lat="42.8076" lon="0.36342">
        <ele>1385.8</ele>
        <time>2024-07-25T22:35:08.828Z</time>
      </trkpt>
      <trkpt lat="42.80717" lon="0.36359">
        <ele>1387.1</ele>
        <time>2024-07-25T22:35:19.759Z</time>
      </trkpt>
      <trkpt lat="42.8065" lon="0.36398">
        <ele>1392.5</ele>
        <time>2024-07-25T22:35:40.384Z</time>
      </trkpt>
      <trkpt lat="42.80628" lon="0.36413">
        <ele>1393</ele>
        <time>2024-07-25T22:35:46.226Z</time>
      </trkpt>
      <trkpt lat="42.80619" lon="0.36429">
        <ele>1394.7</ele>
        <time>2024-07-25T22:35:51.050Z</time>
        <extensions>
          <visugpx:TrkExtension xmlns:visugpx="https://www.visugpx.com/editgpx/">
            <visugpx:node>23</visugpx:node>
            </visugpx:TrkExtension>
        </extensions>
      </trkpt>
      <trkpt lat="42.80618" lon="0.36434">
        <ele>1395.5</ele>
        <time>2024-07-25T22:35:52.825Z</time>
      </trkpt>
      <trkpt lat="42.80619" lon="0.36493">
        <ele>1403.3</ele>
        <time>2024-07-25T22:36:10.791Z</time>
      </trkpt>
      <trkpt lat="42.80614" lon="0.36555">
        <ele>1406.7</ele>
        <time>2024-07-25T22:36:23.754Z</time>
      </trkpt>
      <trkpt lat="42.80598" lon="0.36654">
        <ele>1412.9</ele>
        <time>2024-07-25T22:36:45.481Z</time>
      </trkpt>
      <trkpt lat="42.80595" lon="0.36713">
        <ele>1419.4</ele>
        <time>2024-07-25T22:37:01.539Z</time>
      </trkpt>
      <trkpt lat="42.80591" lon="0.36755">
        <ele>1421.8</ele>
        <time>2024-07-25T22:37:10.429Z</time>
      </trkpt>
      <trkpt lat="42.80586" lon="0.36778">
        <ele>1422.6</ele>
        <time>2024-07-25T22:37:14.960Z</time>
        <extensions>
          <visugpx:TrkExtension xmlns:visugpx="https://www.visugpx.com/editgpx/">
            <visugpx:node>24</visugpx:node>
            </visugpx:TrkExtension>
        </extensions>
      </trkpt>
      <trkpt lat="42.80579" lon="0.36794">
        <ele>1423.9</ele>
        <time>2024-07-25T22:37:19.117Z</time>
      </trkpt>
      <trkpt lat="42.80566" lon="0.36809">
        <ele>1425.9</ele>
        <time>2024-07-25T22:37:24.721Z</time>
      </trkpt>
      <trkpt lat="42.80514" lon="0.36838">
        <ele>1429.8</ele>
        <time>2024-07-25T22:37:40.377Z</time>
      </trkpt>
      <trkpt lat="42.805" lon="0.36849">
        <ele>1431.8</ele>
        <time>2024-07-25T22:37:45.816Z</time>
        <extensions>
          <visugpx:TrkExtension xmlns:visugpx="https://www.visugpx.com/editgpx/">
            <visugpx:node>25</visugpx:node>
            </visugpx:TrkExtension>
        </extensions>
      </trkpt>
      <trkpt lat="42.80478" lon="0.36873">
        <ele>1435.5</ele>
        <time>2024-07-25T22:37:55.561Z</time>
      </trkpt>
      <trkpt lat="42.80459" lon="0.36888">
        <ele>1436.8</ele>
        <time>2024-07-25T22:38:01.475Z</time>
      </trkpt>
      <trkpt lat="42.80382" lon="0.36917">
        <ele>1438.1</ele>
        <time>2024-07-25T22:38:20.206Z</time>
      </trkpt>
      <trkpt lat="42.80364" lon="0.36927">
        <ele>1438.8</ele>
        <time>2024-07-25T22:38:25.059Z</time>
      </trkpt>
      <trkpt lat="42.8036" lon="0.36933">
        <ele>1439.9</ele>
        <time>2024-07-25T22:38:27.573Z</time>
        <extensions>
          <visugpx:TrkExtension xmlns:visugpx="https://www.visugpx.com/editgpx/">
            <visugpx:node>26</visugpx:node>
            </visugpx:TrkExtension>
        </extensions>
      </trkpt>
      <trkpt lat="42.80354" lon="0.36941">
        <ele>1441.6</ele>
        <time>2024-07-25T22:38:31.372Z</time>
      </trkpt>
      <trkpt lat="42.80349" lon="0.36954">
        <ele>1444.7</ele>
        <time>2024-07-25T22:38:38.267Z</time>
      </trkpt>
      <trkpt lat="42.8034" lon="0.36967">
        <ele>1447.3</ele>
        <time>2024-07-25T22:38:44.104Z</time>
      </trkpt>
      <trkpt lat="42.80333" lon="0.36973">
        <ele>1448.1</ele>
        <time>2024-07-25T22:38:46.634Z</time>
      </trkpt>
      <trkpt lat="42.80315" lon="0.36982">
        <ele>1446.2</ele>
        <time>2024-07-25T22:38:50.373Z</time>
      </trkpt>
      <trkpt lat="42.80307" lon="0.36991">
        <ele>1446.7</ele>
        <time>2024-07-25T22:38:53.068Z</time>
        <extensions>
          <visugpx:TrkExtension xmlns:visugpx="https://www.visugpx.com/editgpx/">
            <visugpx:node>27</visugpx:node>
            </visugpx:TrkExtension>
        </extensions>
      </trkpt>
      <trkpt lat="42.80303" lon="0.36995">
        <ele>1446.7</ele>
        <time>2024-07-25T22:38:54.174Z</time>
      </trkpt>
      <trkpt lat="42.80298" lon="0.37006">
        <ele>1448.2</ele>
        <time>2024-07-25T22:38:57.796Z</time>
      </trkpt>
      <trkpt lat="42.8029" lon="0.37032">
        <ele>1453.3</ele>
        <time>2024-07-25T22:39:08.964Z</time>
      </trkpt>
      <trkpt lat="42.80255" lon="0.37103">
        <ele>1463</ele>
        <time>2024-07-25T22:39:32.604Z</time>
      </trkpt>
      <trkpt lat="42.80247" lon="0.37114">
        <ele>1462.7</ele>
        <time>2024-07-25T22:39:34.943Z</time>
      </trkpt>
      <trkpt lat="42.80219" lon="0.37137">
        <ele>1458.4</ele>
        <time>2024-07-25T22:39:41.319Z</time>
      </trkpt>
      <trkpt lat="42.80203" lon="0.37148">
        <ele>1459.6</ele>
        <time>2024-07-25T22:39:46.272Z</time>
      </trkpt>
      <trkpt lat="42.80193" lon="0.37152">
        <ele>1460</ele>
        <time>2024-07-25T22:39:48.894Z</time>
      </trkpt>
      <trkpt lat="42.80189" lon="0.37151">
        <ele>1460.5</ele>
        <time>2024-07-25T22:39:50.258Z</time>
        <extensions>
          <visugpx:TrkExtension xmlns:visugpx="https://www.visugpx.com/editgpx/">
            <visugpx:node>28</visugpx:node>
            </visugpx:TrkExtension>
        </extensions>
      </trkpt>
      <trkpt lat="42.80184" lon="0.3715">
        <ele>1460.9</ele>
        <time>2024-07-25T22:39:51.714Z</time>
      </trkpt>
      <trkpt lat="42.8017" lon="0.37134">
        <ele>1459.8</ele>
        <time>2024-07-25T22:39:55.277Z</time>
      </trkpt>
      <trkpt lat="42.8015" lon="0.37095">
        <ele>1460.7</ele>
        <time>2024-07-25T22:40:03.713Z</time>
      </trkpt>
      <trkpt lat="42.80123" lon="0.37058">
        <ele>1460</ele>
        <time>2024-07-25T22:40:11.786Z</time>
      </trkpt>
      <trkpt lat="42.80106" lon="0.37044">
        <ele>1458.2</ele>
        <time>2024-07-25T22:40:15.660Z</time>
      </trkpt>
      <trkpt lat="42.80102" lon="0.37044">
        <ele>1458.1</ele>
        <time>2024-07-25T22:40:16.486Z</time>
      </trkpt>
      <trkpt lat="42.80095" lon="0.37047">
        <ele>1459</ele>
        <time>2024-07-25T22:40:18.946Z</time>
      </trkpt>
      <trkpt lat="42.80088" lon="0.37053">
        <ele>1461.2</ele>
        <time>2024-07-25T22:40:23.782Z</time>
      </trkpt>
      <trkpt lat="42.80081" lon="0.37065">
        <ele>1464</ele>
        <time>2024-07-25T22:40:29.914Z</time>
      </trkpt>
      <trkpt lat="42.80076" lon="0.37078">
        <ele>1465.6</ele>
        <time>2024-07-25T22:40:33.882Z</time>
        <extensions>
          <visugpx:TrkExtension xmlns:visugpx="https://www.visugpx.com/editgpx/">
            <visugpx:node>29</visugpx:node>
            </visugpx:TrkExtension>
        </extensions>
      </trkpt>
      <trkpt lat="42.8007" lon="0.37095">
        <ele>1466.3</ele>
        <time>2024-07-25T22:40:37.505Z</time>
      </trkpt>
      <trkpt lat="42.80064" lon="0.3713">
        <ele>1468.6</ele>
        <time>2024-07-25T22:40:45.311Z</time>
      </trkpt>
      <trkpt lat="42.80062" lon="0.37161">
        <ele>1470</ele>
        <time>2024-07-25T22:40:51.504Z</time>
      </trkpt>
      <trkpt lat="42.80065" lon="0.37216">
        <ele>1472.9</ele>
        <time>2024-07-25T22:41:02.866Z</time>
      </trkpt>
      <trkpt lat="42.80053" lon="0.37269">
        <ele>1474.8</ele>
        <time>2024-07-25T22:41:13.384Z</time>
        <extensions>
          <visugpx:TrkExtension xmlns:visugpx="https://www.visugpx.com/editgpx/">
            <visugpx:node>30</visugpx:node>
            </visugpx:TrkExtension>
        </extensions>
      </trkpt>
      <trkpt lat="42.80038" lon="0.37333">
        <ele>1480.4</ele>
        <time>2024-07-25T22:41:29.384Z</time>
      </trkpt>
      <trkpt lat="42.80024" lon="0.37351">
        <ele>1479.6</ele>
        <time>2024-07-25T22:41:33.171Z</time>
      </trkpt>
      <trkpt lat="42.80006" lon="0.37356">
        <ele>1479.3</ele>
        <time>2024-07-25T22:41:37.067Z</time>
        <extensions>
          <visugpx:TrkExtension xmlns:visugpx="https://www.visugpx.com/editgpx/">
            <visugpx:node>31</visugpx:node>
            </visugpx:TrkExtension>
        </extensions>
      </trkpt>
      <trkpt lat="42.79974" lon="0.3736">
        <ele>1480.6</ele>
        <time>2024-07-25T22:41:45.206Z</time>
      </trkpt>
      <trkpt lat="42.79959" lon="0.37367">
        <ele>1481.1</ele>
        <time>2024-07-25T22:41:49.108Z</time>
      </trkpt>
      <trkpt lat="42.79924" lon="0.37391">
        <ele>1483.3</ele>
        <time>2024-07-25T22:41:59.554Z</time>
        <extensions>
          <visugpx:TrkExtension xmlns:visugpx="https://www.visugpx.com/editgpx/">
            <visugpx:node>32</visugpx:node>
            </visugpx:TrkExtension>
        </extensions>
      </trkpt>
      <trkpt lat="42.79912" lon="0.37399">
        <ele>1483.7</ele>
        <time>2024-07-25T22:42:02.825Z</time>
      </trkpt>
      <trkpt lat="42.79897" lon="0.37406">
        <ele>1484.1</ele>
        <time>2024-07-25T22:42:06.649Z</time>
      </trkpt>
      <trkpt lat="42.79885" lon="0.37409">
        <ele>1483.6</ele>
        <time>2024-07-25T22:42:09.054Z</time>
      </trkpt>
      <trkpt lat="42.79857" lon="0.3741">
        <ele>1479.6</ele>
        <time>2024-07-25T22:42:14.517Z</time>
      </trkpt>
      <trkpt lat="42.79849" lon="0.37412">
        <ele>1479.7</ele>
        <time>2024-07-25T22:42:16.401Z</time>
      </trkpt>
      <trkpt lat="42.79831" lon="0.37428">
        <ele>1484.8</ele>
        <time>2024-07-25T22:42:27.575Z</time>
      </trkpt>
      <trkpt lat="42.79823" lon="0.37439">
        <ele>1487.2</ele>
        <time>2024-07-25T22:42:32.897Z</time>
      </trkpt>
      <trkpt lat="42.79818" lon="0.3745">
        <ele>1488.7</ele>
        <time>2024-07-25T22:42:36.520Z</time>
      </trkpt>
      <trkpt lat="42.79808" lon="0.37484">
        <ele>1491.6</ele>
        <time>2024-07-25T22:42:45.069Z</time>
      </trkpt>
      <trkpt lat="42.7978" lon="0.37554">
        <ele>1496.5</ele>
        <time>2024-07-25T22:43:02.182Z</time>
      </trkpt>
      <trkpt lat="42.79772" lon="0.37569">
        <ele>1498.3</ele>
        <time>2024-07-25T22:43:06.905Z</time>
      </trkpt>
      <trkpt lat="42.79754" lon="0.3759">
        <ele>1500.1</ele>
        <time>2024-07-25T22:43:13.655Z</time>
        <extensions>
          <visugpx:TrkExtension xmlns:visugpx="https://www.visugpx.com/editgpx/">
            <visugpx:node>33</visugpx:node>
            </visugpx:TrkExtension>
        </extensions>
      </trkpt>
      <trkpt lat="42.7972" lon="0.3762">
        <ele>1501.8</ele>
        <time>2024-07-25T22:43:23.964Z</time>
      </trkpt>
      <trkpt lat="42.7971" lon="0.3764">
        <ele>1503.4</ele>
        <time>2024-07-25T22:43:29.273Z</time>
      </trkpt>
      <trkpt lat="42.79705" lon="0.37656">
        <ele>1504.7</ele>
        <time>2024-07-25T22:43:33.247Z</time>
      </trkpt>
      <trkpt lat="42.79697" lon="0.37696">
        <ele>1508.2</ele>
        <time>2024-07-25T22:43:43.172Z</time>
      </trkpt>
      <trkpt lat="42.79703" lon="0.37746">
        <ele>1513</ele>
        <time>2024-07-25T22:43:55.927Z</time>
        <extensions>
          <visugpx:TrkExtension xmlns:visugpx="https://www.visugpx.com/editgpx/">
            <visugpx:node>34</visugpx:node>
            </visugpx:TrkExtension>
        </extensions>
      </trkpt>
      <trkpt lat="42.79703" lon="0.37765">
        <ele>1515.4</ele>
        <time>2024-07-25T22:44:01.538Z</time>
      </trkpt>
      <trkpt lat="42.797" lon="0.37802">
        <ele>1517.4</ele>
        <time>2024-07-25T22:44:09.248Z</time>
      </trkpt>
      <trkpt lat="42.79694" lon="0.37833">
        <ele>1516.8</ele>
        <time>2024-07-25T22:44:14.102Z</time>
      </trkpt>
      <trkpt lat="42.79693" lon="0.37866">
        <ele>1519.8</ele>
        <time>2024-07-25T22:44:22.259Z</time>
      </trkpt>
      <trkpt lat="42.79696" lon="0.37918">
        <ele>1524</ele>
        <time>2024-07-25T22:44:34.512Z</time>
      </trkpt>
      <trkpt lat="42.79708" lon="0.3798">
        <ele>1530.1</ele>
        <time>2024-07-25T22:44:50.686Z</time>
      </trkpt>
      <trkpt lat="42.79708" lon="0.3799">
        <ele>1530.5</ele>
        <time>2024-07-25T22:44:52.632Z</time>
      </trkpt>
      <trkpt lat="42.79688" lon="0.38054">
        <ele>1531.8</ele>
        <time>2024-07-25T22:45:04.953Z</time>
        <extensions>
          <visugpx:TrkExtension xmlns:visugpx="https://www.visugpx.com/editgpx/">
            <visugpx:node>35</visugpx:node>
            </visugpx:TrkExtension>
        </extensions>
      </trkpt>
      <trkpt lat="42.79682" lon="0.38068">
        <ele>1534.7</ele>
        <time>2024-07-25T22:45:11.304Z</time>
      </trkpt>
      <trkpt lat="42.79677" lon="0.38075">
        <ele>1535.6</ele>
        <time>2024-07-25T22:45:13.732Z</time>
      </trkpt>
      <trkpt lat="42.7966" lon="0.38088">
        <ele>1537.6</ele>
        <time>2024-07-25T22:45:19.818Z</time>
      </trkpt>
      <trkpt lat="42.79636" lon="0.38091">
        <ele>1539.9</ele>
        <time>2024-07-25T22:45:27.157Z</time>
      </trkpt>
      <trkpt lat="42.79622" lon="0.38095">
        <ele>1540.2</ele>
        <time>2024-07-25T22:45:30.562Z</time>
      </trkpt>
      <trkpt lat="42.79595" lon="0.38106">
        <ele>1541.9</ele>
        <time>2024-07-25T22:45:38.180Z</time>
      </trkpt>
      <trkpt lat="42.79587" lon="0.38106">
        <ele>1541.6</ele>
        <time>2024-07-25T22:45:39.773Z</time>
        <extensions>
          <visugpx:TrkExtension xmlns:visugpx="https://www.visugpx.com/editgpx/">
            <visugpx:node>36</visugpx:node>
            </visugpx:TrkExtension>
        </extensions>
      </trkpt>
      <trkpt lat="42.79557" lon="0.38095">
        <ele>1544.7</ele>
        <time>2024-07-25T22:45:49.378Z</time>
      </trkpt>
      <trkpt lat="42.79546" lon="0.38095">
        <ele>1545.3</ele>
        <time>2024-07-25T22:45:52.295Z</time>
      </trkpt>
      <trkpt lat="42.79534" lon="0.38098">
        <ele>1546.5</ele>
        <time>2024-07-25T22:45:56.048Z</time>
      </trkpt>
      <trkpt lat="42.79521" lon="0.38106">
        <ele>1548.7</ele>
        <time>2024-07-25T22:46:01.415Z</time>
      </trkpt>
      <trkpt lat="42.7949" lon="0.38134">
        <ele>1554.4</ele>
        <time>2024-07-25T22:46:15.357Z</time>
      </trkpt>
      <trkpt lat="42.79482" lon="0.38139">
        <ele>1554.5</ele>
        <time>2024-07-25T22:46:17.389Z</time>
      </trkpt>
      <trkpt lat="42.79432" lon="0.38159">
        <ele>1558</ele>
        <time>2024-07-25T22:46:31.800Z</time>
      </trkpt>
      <trkpt lat="42.79405" lon="0.38163">
        <ele>1559</ele>
        <time>2024-07-25T22:46:38.599Z</time>
        <extensions>
          <visugpx:TrkExtension xmlns:visugpx="https://www.visugpx.com/editgpx/">
            <visugpx:node>37</visugpx:node>
            </visugpx:TrkExtension>
        </extensions>
      </trkpt>
      <trkpt lat="42.7939" lon="0.38163">
        <ele>1560.1</ele>
        <time>2024-07-25T22:46:42.834Z</time>
      </trkpt>
      <trkpt lat="42.79377" lon="0.38159">
        <ele>1561.8</ele>
        <time>2024-07-25T22:46:47.381Z</time>
      </trkpt>
      <trkpt lat="42.79363" lon="0.38152">
        <ele>1562.9</ele>
        <time>2024-07-25T22:46:51.598Z</time>
      </trkpt>
      <trkpt lat="42.79352" lon="0.38143">
        <ele>1563.9</ele>
        <time>2024-07-25T22:46:55.278Z</time>
      </trkpt>
      <trkpt lat="42.79334" lon="0.38122">
        <ele>1566.5</ele>
        <time>2024-07-25T22:47:02.864Z</time>
      </trkpt>
      <trkpt lat="42.79325" lon="0.38116">
        <ele>1567.6</ele>
        <time>2024-07-25T22:47:06.072Z</time>
      </trkpt>
      <trkpt lat="42.79309" lon="0.38113">
        <ele>1569.2</ele>
        <time>2024-07-25T22:47:11.053Z</time>
      </trkpt>
      <trkpt lat="42.79263" lon="0.38113">
        <ele>1573</ele>
        <time>2024-07-25T22:47:24.456Z</time>
      </trkpt>
      <trkpt lat="42.79233" lon="0.38102">
        <ele>1574.9</ele>
        <time>2024-07-25T22:47:32.878Z</time>
        <extensions>
          <visugpx:TrkExtension xmlns:visugpx="https://www.visugpx.com/editgpx/">
            <visugpx:node>38</visugpx:node>
            </visugpx:TrkExtension>
        </extensions>
      </trkpt>
      <trkpt lat="42.79203" lon="0.38088">
        <ele>1578.4</ele>
        <time>2024-07-25T22:47:43.053Z</time>
      </trkpt>
      <trkpt lat="42.79188" lon="0.38085">
        <ele>1580.9</ele>
        <time>2024-07-25T22:47:48.990Z</time>
      </trkpt>
      <trkpt lat="42.79185" lon="0.38086">
        <ele>1581.2</ele>
        <time>2024-07-25T22:47:49.936Z</time>
      </trkpt>
      <trkpt lat="42.79187" lon="0.38101">
        <ele>1580.4</ele>
        <time>2024-07-25T22:47:52.118Z</time>
      </trkpt>
      <trkpt lat="42.79191" lon="0.38111">
        <ele>1580</ele>
        <time>2024-07-25T22:47:53.748Z</time>
      </trkpt>
      <trkpt lat="42.79195" lon="0.38116">
        <ele>1579.1</ele>
        <time>2024-07-25T22:47:54.807Z</time>
      </trkpt>
      <trkpt lat="42.79206" lon="0.38127">
        <ele>1577.5</ele>
        <time>2024-07-25T22:47:57.468Z</time>
      </trkpt>
      <trkpt lat="42.79228" lon="0.38143">
        <ele>1576.9</ele>
        <time>2024-07-25T22:48:02.635Z</time>
      </trkpt>
      <trkpt lat="42.79254" lon="0.38157">
        <ele>1575.2</ele>
        <time>2024-07-25T22:48:08.088Z</time>
        <extensions>
          <visugpx:TrkExtension xmlns:visugpx="https://www.visugpx.com/editgpx/">
            <visugpx:node>39</visugpx:node>
            </visugpx:TrkExtension>
        </extensions>
      </trkpt>
      <trkpt lat="42.79264" lon="0.38162">
        <ele>1575.5</ele>
        <time>2024-07-25T22:48:10.681Z</time>
      </trkpt>
      <trkpt lat="42.79269" lon="0.38168">
        <ele>1575.4</ele>
        <time>2024-07-25T22:48:12.100Z</time>
      </trkpt>
      <trkpt lat="42.79313" lon="0.3827">
        <ele>1565.7</ele>
        <time>2024-07-25T22:48:29.035Z</time>
      </trkpt>
      <trkpt lat="42.79328" lon="0.3829">
        <ele>1564.1</ele>
        <time>2024-07-25T22:48:33.128Z</time>
      </trkpt>
      <trkpt lat="42.79344" lon="0.38302">
        <ele>1562.2</ele>
        <time>2024-07-25T22:48:36.690Z</time>
        <extensions>
          <visugpx:TrkExtension xmlns:visugpx="https://www.visugpx.com/editgpx/">
            <visugpx:node>40</visugpx:node>
            </visugpx:TrkExtension>
        </extensions>
      </trkpt>
      <trkpt lat="42.7937" lon="0.38313">
        <ele>1559.8</ele>
        <time>2024-07-25T22:48:42.000Z</time>
      </trkpt>
      <trkpt lat="42.79403" lon="0.38334">
        <ele>1555.2</ele>
        <time>2024-07-25T22:48:49.103Z</time>
      </trkpt>
      <trkpt lat="42.79409" lon="0.38336">
        <ele>1554.6</ele>
        <time>2024-07-25T22:48:50.308Z</time>
      </trkpt>
      <trkpt lat="42.79441" lon="0.38334">
        <ele>1554</ele>
        <time>2024-07-25T22:48:57.053Z</time>
      </trkpt>
      <trkpt lat="42.79451" lon="0.38336">
        <ele>1554.3</ele>
        <time>2024-07-25T22:48:59.526Z</time>
      </trkpt>
      <trkpt lat="42.79466" lon="0.38345">
        <ele>1554.3</ele>
        <time>2024-07-25T22:49:03.179Z</time>
      </trkpt>
      <trkpt lat="42.79477" lon="0.38359">
        <ele>1553</ele>
        <time>2024-07-25T22:49:06.115Z</time>
      </trkpt>
      <trkpt lat="42.79493" lon="0.38396">
        <ele>1548.5</ele>
        <time>2024-07-25T22:49:12.262Z</time>
      </trkpt>
      <trkpt lat="42.79512" lon="0.38421">
        <ele>1545.3</ele>
        <time>2024-07-25T22:49:17.413Z</time>
      </trkpt>
      <trkpt lat="42.79532" lon="0.38455">
        <ele>1540.9</ele>
        <time>2024-07-25T22:49:23.650Z</time>
      </trkpt>
      <trkpt lat="42.79537" lon="0.38459">
        <ele>1540</ele>
        <time>2024-07-25T22:49:24.780Z</time>
        <extensions>
          <visugpx:TrkExtension xmlns:visugpx="https://www.visugpx.com/editgpx/">
            <visugpx:node>41</visugpx:node>
            </visugpx:TrkExtension>
        </extensions>
      </trkpt>
      <trkpt lat="42.79543" lon="0.38465">
        <ele>1539</ele>
        <time>2024-07-25T22:49:26.232Z</time>
      </trkpt>
      <trkpt lat="42.79552" lon="0.38467">
        <ele>1538.6</ele>
        <time>2024-07-25T22:49:28.014Z</time>
      </trkpt>
      <trkpt lat="42.79601" lon="0.3845">
        <ele>1534.6</ele>
        <time>2024-07-25T22:49:37.876Z</time>
      </trkpt>
      <trkpt lat="42.79627" lon="0.38439">
        <ele>1532.7</ele>
        <time>2024-07-25T22:49:43.186Z</time>
      </trkpt>
      <trkpt lat="42.79636" lon="0.38437">
        <ele>1531.2</ele>
        <time>2024-07-25T22:49:44.965Z</time>
      </trkpt>
      <trkpt lat="42.79645" lon="0.38437">
        <ele>1531.3</ele>
        <time>2024-07-25T22:49:47.041Z</time>
      </trkpt>
      <trkpt lat="42.79656" lon="0.38444">
        <ele>1530.9</ele>
        <time>2024-07-25T22:49:49.491Z</time>
      </trkpt>
      <trkpt lat="42.79665" lon="0.38453">
        <ele>1530.1</ele>
        <time>2024-07-25T22:49:51.669Z</time>
        <extensions>
          <visugpx:TrkExtension xmlns:visugpx="https://www.visugpx.com/editgpx/">
            <visugpx:node>42</visugpx:node>
            </visugpx:TrkExtension>
        </extensions>
      </trkpt>
      <trkpt lat="42.7968" lon="0.38471">
        <ele>1530.1</ele>
        <time>2024-07-25T22:49:56.124Z</time>
      </trkpt>
      <trkpt lat="42.79713" lon="0.38526">
        <ele>1524.2</ele>
        <time>2024-07-25T22:50:06.292Z</time>
      </trkpt>
      <trkpt lat="42.7974" lon="0.38564">
        <ele>1520.6</ele>
        <time>2024-07-25T22:50:13.862Z</time>
      </trkpt>
      <trkpt lat="42.79775" lon="0.38595">
        <ele>1518.1</ele>
        <time>2024-07-25T22:50:22.004Z</time>
      </trkpt>
      <trkpt lat="42.79796" lon="0.38624">
        <ele>1514.1</ele>
        <time>2024-07-25T22:50:27.835Z</time>
      </trkpt>
      <trkpt lat="42.7989" lon="0.38719">
        <ele>1502.9</ele>
        <time>2024-07-25T22:50:50.660Z</time>
      </trkpt>
      <trkpt lat="42.79904" lon="0.3873">
        <ele>1500.7</ele>
        <time>2024-07-25T22:50:53.812Z</time>
      </trkpt>
      <trkpt lat="42.79925" lon="0.38741">
        <ele>1498.5</ele>
        <time>2024-07-25T22:50:58.200Z</time>
      </trkpt>
      <trkpt lat="42.79943" lon="0.38744">
        <ele>1496.8</ele>
        <time>2024-07-25T22:51:01.737Z</time>
      </trkpt>
      <trkpt lat="42.7997" lon="0.38744">
        <ele>1495.3</ele>
        <time>2024-07-25T22:51:07.003Z</time>
      </trkpt>
      <trkpt lat="42.79989" lon="0.3875">
        <ele>1493.1</ele>
        <time>2024-07-25T22:51:10.807Z</time>
        <extensions>
          <visugpx:TrkExtension xmlns:visugpx="https://www.visugpx.com/editgpx/">
            <visugpx:node>43</visugpx:node>
            </visugpx:TrkExtension>
        </extensions>
      </trkpt>
      <trkpt lat="42.80009" lon="0.38759">
        <ele>1491</ele>
        <time>2024-07-25T22:51:14.915Z</time>
      </trkpt>
      <trkpt lat="42.80026" lon="0.38779">
        <ele>1488.4</ele>
        <time>2024-07-25T22:51:19.296Z</time>
      </trkpt>
      <trkpt lat="42.80043" lon="0.38794">
        <ele>1484.6</ele>
        <time>2024-07-25T22:51:23.246Z</time>
      </trkpt>
      <trkpt lat="42.80051" lon="0.38795">
        <ele>1484.4</ele>
        <time>2024-07-25T22:51:24.906Z</time>
      </trkpt>
      <trkpt lat="42.8007" lon="0.38792">
        <ele>1483.3</ele>
        <time>2024-07-25T22:51:28.637Z</time>
      </trkpt>
      <trkpt lat="42.8011" lon="0.38777">
        <ele>1481.4</ele>
        <time>2024-07-25T22:51:36.728Z</time>
      </trkpt>
      <trkpt lat="42.80118" lon="0.38782">
        <ele>1479.7</ele>
        <time>2024-07-25T22:51:38.445Z</time>
      </trkpt>
      <trkpt lat="42.8012" lon="0.38787">
        <ele>1478.7</ele>
        <time>2024-07-25T22:51:39.260Z</time>
      </trkpt>
      <trkpt lat="42.8012" lon="0.38793">
        <ele>1477.9</ele>
        <time>2024-07-25T22:51:40.119Z</time>
      </trkpt>
      <trkpt lat="42.80117" lon="0.38798">
        <ele>1477.7</ele>
        <time>2024-07-25T22:51:41.049Z</time>
      </trkpt>
      <trkpt lat="42.80113" lon="0.388">
        <ele>1478.2</ele>
        <time>2024-07-25T22:51:42.451Z</time>
      </trkpt>
      <trkpt lat="42.8008" lon="0.38807">
        <ele>1477.7</ele>
        <time>2024-07-25T22:51:49.563Z</time>
      </trkpt>
      <trkpt lat="42.80049" lon="0.38822">
        <ele>1473.6</ele>
        <time>2024-07-25T22:51:55.979Z</time>
      </trkpt>
      <trkpt lat="42.80007" lon="0.38825">
        <ele>1472.2</ele>
        <time>2024-07-25T22:52:04.459Z</time>
        <extensions>
          <visugpx:TrkExtension xmlns:visugpx="https://www.visugpx.com/editgpx/">
            <visugpx:node>44</visugpx:node>
            </visugpx:TrkExtension>
        </extensions>
      </trkpt>
      <trkpt lat="42.79972" lon="0.38839">
        <ele>1468</ele>
        <time>2024-07-25T22:52:11.573Z</time>
      </trkpt>
      <trkpt lat="42.7996" lon="0.38848">
        <ele>1467</ele>
        <time>2024-07-25T22:52:14.245Z</time>
      </trkpt>
      <trkpt lat="42.7995" lon="0.38859">
        <ele>1465.2</ele>
        <time>2024-07-25T22:52:16.751Z</time>
      </trkpt>
      <trkpt lat="42.79928" lon="0.38894">
        <ele>1460.6</ele>
        <time>2024-07-25T22:52:23.347Z</time>
      </trkpt>
      <trkpt lat="42.79917" lon="0.38902">
        <ele>1460.6</ele>
        <time>2024-07-25T22:52:26.126Z</time>
      </trkpt>
      <trkpt lat="42.79912" lon="0.38903">
        <ele>1459.9</ele>
        <time>2024-07-25T22:52:27.112Z</time>
        <extensions>
          <visugpx:TrkExtension xmlns:visugpx="https://www.visugpx.com/editgpx/">
            <visugpx:node>45</visugpx:node>
            </visugpx:TrkExtension>
        </extensions>
      </trkpt>
      <trkpt lat="42.79897" lon="0.38896">
        <ele>1458.9</ele>
        <time>2024-07-25T22:52:30.204Z</time>
      </trkpt>
      <trkpt lat="42.79856" lon="0.38863">
        <ele>1457.6</ele>
        <time>2024-07-25T22:52:39.977Z</time>
      </trkpt>
      <trkpt lat="42.79823" lon="0.3884">
        <ele>1456.2</ele>
        <time>2024-07-25T22:52:47.351Z</time>
      </trkpt>
      <trkpt lat="42.79808" lon="0.38832">
        <ele>1454</ele>
        <time>2024-07-25T22:52:50.493Z</time>
      </trkpt>
      <trkpt lat="42.798" lon="0.38833">
        <ele>1453.2</ele>
        <time>2024-07-25T22:52:52.060Z</time>
        <extensions>
          <visugpx:TrkExtension xmlns:visugpx="https://www.visugpx.com/editgpx/">
            <visugpx:node>46</visugpx:node>
            </visugpx:TrkExtension>
        </extensions>
      </trkpt>
      <trkpt lat="42.79838" lon="0.38893">
        <ele>1449.5</ele>
        <time>2024-07-25T22:53:03.403Z</time>
      </trkpt>
      <trkpt lat="42.79844" lon="0.38904">
        <ele>1449.4</ele>
        <time>2024-07-25T22:53:05.578Z</time>
      </trkpt>
      <trkpt lat="42.79853" lon="0.3893">
        <ele>1448.3</ele>
        <time>2024-07-25T22:53:09.692Z</time>
      </trkpt>
      <trkpt lat="42.7986" lon="0.3897">
        <ele>1447</ele>
        <time>2024-07-25T22:53:15.603Z</time>
      </trkpt>
      <trkpt lat="42.79864" lon="0.38976">
        <ele>1446</ele>
        <time>2024-07-25T22:53:16.763Z</time>
      </trkpt>
      <trkpt lat="42.79874" lon="0.38984">
        <ele>1444.3</ele>
        <time>2024-07-25T22:53:19.025Z</time>
      </trkpt>
      <trkpt lat="42.79913" lon="0.39">
        <ele>1441.9</ele>
        <time>2024-07-25T22:53:26.969Z</time>
      </trkpt>
      <trkpt lat="42.79945" lon="0.39011">
        <ele>1438.7</ele>
        <time>2024-07-25T22:53:33.406Z</time>
      </trkpt>
      <trkpt lat="42.79953" lon="0.39012">
        <ele>1437.1</ele>
        <time>2024-07-25T22:53:34.973Z</time>
      </trkpt>
      <trkpt lat="42.79968" lon="0.39007">
        <ele>1435.5</ele>
        <time>2024-07-25T22:53:37.985Z</time>
      </trkpt>
      <trkpt lat="42.79985" lon="0.38991">
        <ele>1435.4</ele>
        <time>2024-07-25T22:53:42.522Z</time>
      </trkpt>
      <trkpt lat="42.79992" lon="0.38987">
        <ele>1434.8</ele>
        <time>2024-07-25T22:53:44.002Z</time>
      </trkpt>
      <trkpt lat="42.80001" lon="0.38983">
        <ele>1433.9</ele>
        <time>2024-07-25T22:53:45.849Z</time>
      </trkpt>
      <trkpt lat="42.80027" lon="0.3898">
        <ele>1429.6</ele>
        <time>2024-07-25T22:53:50.938Z</time>
      </trkpt>
      <trkpt lat="42.80039" lon="0.38976">
        <ele>1428.7</ele>
        <time>2024-07-25T22:53:53.348Z</time>
      </trkpt>
      <trkpt lat="42.80104" lon="0.3894">
        <ele>1423.3</ele>
        <time>2024-07-25T22:54:07.032Z</time>
      </trkpt>
      <trkpt lat="42.80146" lon="0.38925">
        <ele>1417.8</ele>
        <time>2024-07-25T22:54:15.501Z</time>
      </trkpt>
      <trkpt lat="42.8017" lon="0.3891">
        <ele>1417.8</ele>
        <time>2024-07-25T22:54:21.386Z</time>
      </trkpt>
      <trkpt lat="42.80185" lon="0.38898">
        <ele>1416.4</ele>
        <time>2024-07-25T22:54:24.779Z</time>
      </trkpt>
      <trkpt lat="42.80242" lon="0.3884">
        <ele>1410.8</ele>
        <time>2024-07-25T22:54:38.653Z</time>
      </trkpt>
      <trkpt lat="42.80262" lon="0.38829">
        <ele>1408.8</ele>
        <time>2024-07-25T22:54:42.859Z</time>
      </trkpt>
      <trkpt lat="42.8029" lon="0.38818">
        <ele>1407.7</ele>
        <time>2024-07-25T22:54:48.658Z</time>
      </trkpt>
      <trkpt lat="42.80315" lon="0.38811">
        <ele>1407</ele>
        <time>2024-07-25T22:54:53.894Z</time>
      </trkpt>
      <trkpt lat="42.80334" lon="0.38803">
        <ele>1406.5</ele>
        <time>2024-07-25T22:54:58.001Z</time>
        <extensions>
          <visugpx:TrkExtension xmlns:visugpx="https://www.visugpx.com/editgpx/">
            <visugpx:node>47</visugpx:node>
            </visugpx:TrkExtension>
        </extensions>
      </trkpt>
      <trkpt lat="42.8035" lon="0.38796">
        <ele>1406.2</ele>
        <time>2024-07-25T22:55:01.549Z</time>
      </trkpt>
      <trkpt lat="42.80353" lon="0.38796">
        <ele>1405.9</ele>
        <time>2024-07-25T22:55:02.134Z</time>
      </trkpt>
      <trkpt lat="42.80358" lon="0.38799">
        <ele>1405.3</ele>
        <time>2024-07-25T22:55:03.199Z</time>
      </trkpt>
      <trkpt lat="42.80359" lon="0.38809">
        <ele>1404.4</ele>
        <time>2024-07-25T22:55:04.644Z</time>
      </trkpt>
      <trkpt lat="42.80357" lon="0.38814">
        <ele>1403.4</ele>
        <time>2024-07-25T22:55:05.459Z</time>
      </trkpt>
      <trkpt lat="42.80354" lon="0.38816">
        <ele>1403</ele>
        <time>2024-07-25T22:55:06.110Z</time>
      </trkpt>
      <trkpt lat="42.80322" lon="0.38821">
        <ele>1402.1</ele>
        <time>2024-07-25T22:55:12.708Z</time>
      </trkpt>
      <trkpt lat="42.80292" lon="0.38833">
        <ele>1400.6</ele>
        <time>2024-07-25T22:55:18.806Z</time>
      </trkpt>
      <trkpt lat="42.80281" lon="0.38841">
        <ele>1399.4</ele>
        <time>2024-07-25T22:55:21.238Z</time>
      </trkpt>
      <trkpt lat="42.80252" lon="0.38873">
        <ele>1396</ele>
        <time>2024-07-25T22:55:28.515Z</time>
      </trkpt>
      <trkpt lat="42.80237" lon="0.38895">
        <ele>1394.7</ele>
        <time>2024-07-25T22:55:32.813Z</time>
      </trkpt>
      <trkpt lat="42.80198" lon="0.38982">
        <ele>1387</ele>
        <time>2024-07-25T22:55:47.403Z</time>
      </trkpt>
      <trkpt lat="42.80173" lon="0.39028">
        <ele>1384.1</ele>
        <time>2024-07-25T22:55:55.595Z</time>
      </trkpt>
      <trkpt lat="42.80159" lon="0.39042">
        <ele>1383.6</ele>
        <time>2024-07-25T22:55:59.143Z</time>
      </trkpt>
      <trkpt lat="42.80126" lon="0.39065">
        <ele>1382.6</ele>
        <time>2024-07-25T22:56:06.757Z</time>
      </trkpt>
      <trkpt lat="42.80118" lon="0.39077">
        <ele>1381.2</ele>
        <time>2024-07-25T22:56:09.078Z</time>
      </trkpt>
      <trkpt lat="42.80114" lon="0.39084">
        <ele>1380.4</ele>
        <time>2024-07-25T22:56:10.347Z</time>
      </trkpt>
      <trkpt lat="42.80103" lon="0.39133">
        <ele>1376</ele>
        <time>2024-07-25T22:56:17.680Z</time>
      </trkpt>
      <trkpt lat="42.80099" lon="0.39141">
        <ele>1375.4</ele>
        <time>2024-07-25T22:56:19.066Z</time>
      </trkpt>
      <trkpt lat="42.8009" lon="0.3915">
        <ele>1374.8</ele>
        <time>2024-07-25T22:56:21.243Z</time>
        <extensions>
          <visugpx:TrkExtension xmlns:visugpx="https://www.visugpx.com/editgpx/">
            <visugpx:node>48</visugpx:node>
            </visugpx:TrkExtension>
        </extensions>
      </trkpt>
      <trkpt lat="42.80087" lon="0.39153">
        <ele>1374.6</ele>
        <time>2024-07-25T22:56:21.969Z</time>
      </trkpt>
      <trkpt lat="42.80079" lon="0.39157">
        <ele>1374.3</ele>
        <time>2024-07-25T22:56:23.677Z</time>
      </trkpt>
      <trkpt lat="42.80056" lon="0.39161">
        <ele>1373.8</ele>
        <time>2024-07-25T22:56:28.518Z</time>
      </trkpt>
      <trkpt lat="42.80048" lon="0.39166">
        <ele>1372.5</ele>
        <time>2024-07-25T22:56:30.235Z</time>
      </trkpt>
      <trkpt lat="42.79998" lon="0.39209">
        <ele>1365.1</ele>
        <time>2024-07-25T22:56:41.766Z</time>
      </trkpt>
      <trkpt lat="42.79968" lon="0.3923">
        <ele>1362.5</ele>
        <time>2024-07-25T22:56:48.344Z</time>
      </trkpt>
      <trkpt lat="42.79954" lon="0.39237">
        <ele>1361.3</ele>
        <time>2024-07-25T22:56:51.253Z</time>
      </trkpt>
      <trkpt lat="42.79937" lon="0.39241">
        <ele>1360.8</ele>
        <time>2024-07-25T22:56:54.776Z</time>
      </trkpt>
      <trkpt lat="42.79864" lon="0.39279">
        <ele>1354.7</ele>
        <time>2024-07-25T22:57:10.017Z</time>
      </trkpt>
      <trkpt lat="42.79821" lon="0.39295">
        <ele>1353</ele>
        <time>2024-07-25T22:57:18.876Z</time>
      </trkpt>
      <trkpt lat="42.79817" lon="0.393">
        <ele>1352.4</ele>
        <time>2024-07-25T22:57:19.935Z</time>
      </trkpt>
      <trkpt lat="42.79815" lon="0.39307">
        <ele>1351.5</ele>
        <time>2024-07-25T22:57:21.010Z</time>
      </trkpt>
      <trkpt lat="42.7981" lon="0.39362">
        <ele>1346.3</ele>
        <time>2024-07-25T22:57:28.942Z</time>
      </trkpt>
      <trkpt lat="42.79799" lon="0.39384">
        <ele>1345.4</ele>
        <time>2024-07-25T22:57:32.752Z</time>
      </trkpt>
      <trkpt lat="42.79792" lon="0.39391">
        <ele>1344.7</ele>
        <time>2024-07-25T22:57:34.445Z</time>
      </trkpt>
      <trkpt lat="42.79784" lon="0.39396">
        <ele>1344</ele>
        <time>2024-07-25T22:57:36.162Z</time>
      </trkpt>
      <trkpt lat="42.79744" lon="0.39398">
        <ele>1343.1</ele>
        <time>2024-07-25T22:57:44.495Z</time>
      </trkpt>
      <trkpt lat="42.79739" lon="0.394">
        <ele>1343</ele>
        <time>2024-07-25T22:57:45.591Z</time>
      </trkpt>
      <trkpt lat="42.79736" lon="0.39405">
        <ele>1342.6</ele>
        <time>2024-07-25T22:57:46.515Z</time>
      </trkpt>
      <trkpt lat="42.79737" lon="0.39413">
        <ele>1341.8</ele>
        <time>2024-07-25T22:57:47.677Z</time>
      </trkpt>
      <trkpt lat="42.79739" lon="0.39416">
        <ele>1341.5</ele>
        <time>2024-07-25T22:57:48.257Z</time>
      </trkpt>
      <trkpt lat="42.79748" lon="0.3942">
        <ele>1340.3</ele>
        <time>2024-07-25T22:57:50.103Z</time>
        <extensions>
          <visugpx:TrkExtension xmlns:visugpx="https://www.visugpx.com/editgpx/">
            <visugpx:node>49</visugpx:node>
            </visugpx:TrkExtension>
        </extensions>
      </trkpt>
      <trkpt lat="42.7976" lon="0.39425">
        <ele>1339.1</ele>
        <time>2024-07-25T22:57:52.551Z</time>
      </trkpt>
      <trkpt lat="42.7979" lon="0.39442">
        <ele>1334.7</ele>
        <time>2024-07-25T22:57:58.888Z</time>
      </trkpt>
      <trkpt lat="42.79805" lon="0.39448">
        <ele>1333.2</ele>
        <time>2024-07-25T22:58:01.937Z</time>
      </trkpt>
      <trkpt lat="42.79813" lon="0.3945">
        <ele>1331.8</ele>
        <time>2024-07-25T22:58:03.523Z</time>
      </trkpt>
      <trkpt lat="42.79846" lon="0.39447">
        <ele>1330</ele>
        <time>2024-07-25T22:58:09.974Z</time>
      </trkpt>
      <trkpt lat="42.79854" lon="0.39449">
        <ele>1329.8</ele>
        <time>2024-07-25T22:58:11.657Z</time>
      </trkpt>
      <trkpt lat="42.79859" lon="0.39454">
        <ele>1328.9</ele>
        <time>2024-07-25T22:58:12.866Z</time>
      </trkpt>
      <trkpt lat="42.79878" lon="0.39489">
        <ele>1324.4</ele>
        <time>2024-07-25T22:58:19.097Z</time>
      </trkpt>
      <trkpt lat="42.79883" lon="0.39502">
        <ele>1323.1</ele>
        <time>2024-07-25T22:58:21.198Z</time>
      </trkpt>
      <trkpt lat="42.79889" lon="0.39509">
        <ele>1322.4</ele>
        <time>2024-07-25T22:58:22.738Z</time>
      </trkpt>
      <trkpt lat="42.79899" lon="0.39515">
        <ele>1321.1</ele>
        <time>2024-07-25T22:58:24.869Z</time>
      </trkpt>
      <trkpt lat="42.79918" lon="0.39521">
        <ele>1319.9</ele>
        <time>2024-07-25T22:58:28.673Z</time>
      </trkpt>
      <trkpt lat="42.79946" lon="0.39523">
        <ele>1317</ele>
        <time>2024-07-25T22:58:34.142Z</time>
      </trkpt>
      <trkpt lat="42.79958" lon="0.39523">
        <ele>1315.7</ele>
        <time>2024-07-25T22:58:36.483Z</time>
      </trkpt>
      <trkpt lat="42.79989" lon="0.39514">
        <ele>1313.9</ele>
        <time>2024-07-25T22:58:42.665Z</time>
      </trkpt>
      <trkpt lat="42.8002" lon="0.39515">
        <ele>1310.1</ele>
        <time>2024-07-25T22:58:48.713Z</time>
      </trkpt>
      <trkpt lat="42.80048" lon="0.39509">
        <ele>1305.5</ele>
        <time>2024-07-25T22:58:54.241Z</time>
      </trkpt>
      <trkpt lat="42.80074" lon="0.39495">
        <ele>1303</ele>
        <time>2024-07-25T22:58:59.694Z</time>
      </trkpt>
      <trkpt lat="42.80089" lon="0.39483">
        <ele>1301.2</ele>
        <time>2024-07-25T22:59:03.086Z</time>
      </trkpt>
      <trkpt lat="42.80125" lon="0.39467">
        <ele>1298.5</ele>
        <time>2024-07-25T22:59:10.472Z</time>
      </trkpt>
      <trkpt lat="42.80153" lon="0.39452">
        <ele>1295.5</ele>
        <time>2024-07-25T22:59:16.340Z</time>
      </trkpt>
      <trkpt lat="42.80196" lon="0.39422">
        <ele>1290.2</ele>
        <time>2024-07-25T22:59:25.762Z</time>
        <extensions>
          <visugpx:TrkExtension xmlns:visugpx="https://www.visugpx.com/editgpx/">
            <visugpx:node>50</visugpx:node>
            </visugpx:TrkExtension>
        </extensions>
      </trkpt>
      <trkpt lat="42.8021" lon="0.39413">
        <ele>1291.1</ele>
        <time>2024-07-25T22:59:29.916Z</time>
      </trkpt>
      <trkpt lat="42.80217" lon="0.39413">
        <ele>1290.3</ele>
        <time>2024-07-25T22:59:31.281Z</time>
      </trkpt>
      <trkpt lat="42.80221" lon="0.39416">
        <ele>1289.2</ele>
        <time>2024-07-25T22:59:32.172Z</time>
      </trkpt>
      <trkpt lat="42.80224" lon="0.39425">
        <ele>1286</ele>
        <time>2024-07-25T22:59:33.586Z</time>
      </trkpt>
      <trkpt lat="42.80222" lon="0.39429">
        <ele>1285.5</ele>
        <time>2024-07-25T22:59:34.279Z</time>
      </trkpt>
      <trkpt lat="42.80209" lon="0.39442">
        <ele>1284.8</ele>
        <time>2024-07-25T22:59:37.435Z</time>
      </trkpt>
      <trkpt lat="42.80167" lon="0.39499">
        <ele>1278.2</ele>
        <time>2024-07-25T22:59:48.995Z</time>
      </trkpt>
      <trkpt lat="42.8015" lon="0.39513">
        <ele>1276.3</ele>
        <time>2024-07-25T22:59:52.869Z</time>
      </trkpt>
      <trkpt lat="42.80139" lon="0.39519">
        <ele>1276.1</ele>
        <time>2024-07-25T22:59:55.378Z</time>
      </trkpt>
      <trkpt lat="42.80112" lon="0.39559">
        <ele>1272.2</ele>
        <time>2024-07-25T23:00:03.156Z</time>
      </trkpt>
      <trkpt lat="42.80097" lon="0.3959">
        <ele>1270.7</ele>
        <time>2024-07-25T23:00:08.470Z</time>
      </trkpt>
      <trkpt lat="42.80087" lon="0.39606">
        <ele>1269.3</ele>
        <time>2024-07-25T23:00:11.478Z</time>
      </trkpt>
      <trkpt lat="42.80056" lon="0.39633">
        <ele>1267</ele>
        <time>2024-07-25T23:00:18.654Z</time>
      </trkpt>
      <trkpt lat="42.80053" lon="0.39638">
        <ele>1265.9</ele>
        <time>2024-07-25T23:00:19.578Z</time>
      </trkpt>
      <trkpt lat="42.80052" lon="0.39644">
        <ele>1265.2</ele>
        <time>2024-07-25T23:00:20.459Z</time>
      </trkpt>
      <trkpt lat="42.80055" lon="0.39655">
        <ele>1263.8</ele>
        <time>2024-07-25T23:00:22.138Z</time>
      </trkpt>
      <trkpt lat="42.80061" lon="0.39659">
        <ele>1261.9</ele>
        <time>2024-07-25T23:00:23.441Z</time>
      </trkpt>
      <trkpt lat="42.80067" lon="0.39658">
        <ele>1260.3</ele>
        <time>2024-07-25T23:00:24.620Z</time>
      </trkpt>
      <trkpt lat="42.80155" lon="0.39606">
        <ele>1251.4</ele>
        <time>2024-07-25T23:00:43.328Z</time>
      </trkpt>
      <trkpt lat="42.80173" lon="0.39591">
        <ele>1248.9</ele>
        <time>2024-07-25T23:00:47.443Z</time>
      </trkpt>
      <trkpt lat="42.80192" lon="0.3957">
        <ele>1246.6</ele>
        <time>2024-07-25T23:00:52.214Z</time>
        <extensions>
          <visugpx:TrkExtension xmlns:visugpx="https://www.visugpx.com/editgpx/">
            <visugpx:node>51</visugpx:node>
            </visugpx:TrkExtension>
        </extensions>
      </trkpt>
      <trkpt lat="42.80204" lon="0.39554">
        <ele>1245.9</ele>
        <time>2024-07-25T23:00:55.516Z</time>
      </trkpt>
      <trkpt lat="42.80209" lon="0.3955">
        <ele>1246.4</ele>
        <time>2024-07-25T23:00:57.226Z</time>
      </trkpt>
      <trkpt lat="42.80214" lon="0.39547">
        <ele>1246.3</ele>
        <time>2024-07-25T23:00:58.378Z</time>
      </trkpt>
      <trkpt lat="42.80225" lon="0.39549">
        <ele>1243.2</ele>
        <time>2024-07-25T23:01:00.543Z</time>
      </trkpt>
      <trkpt lat="42.80228" lon="0.39559">
        <ele>1240.1</ele>
        <time>2024-07-25T23:01:02.089Z</time>
      </trkpt>
      <trkpt lat="42.80227" lon="0.39566">
        <ele>1239.5</ele>
        <time>2024-07-25T23:01:03.109Z</time>
      </trkpt>
      <trkpt lat="42.80198" lon="0.39629">
        <ele>1233.9</ele>
        <time>2024-07-25T23:01:13.752Z</time>
      </trkpt>
      <trkpt lat="42.80191" lon="0.39639">
        <ele>1233.7</ele>
        <time>2024-07-25T23:01:15.881Z</time>
      </trkpt>
      <trkpt lat="42.80173" lon="0.39658">
        <ele>1231.4</ele>
        <time>2024-07-25T23:01:20.322Z</time>
      </trkpt>
      <trkpt lat="42.80157" lon="0.39678">
        <ele>1230.4</ele>
        <time>2024-07-25T23:01:24.556Z</time>
      </trkpt>
      <trkpt lat="42.80127" lon="0.39738">
        <ele>1228.3</ele>
        <time>2024-07-25T23:01:35.105Z</time>
      </trkpt>
      <trkpt lat="42.80125" lon="0.39747">
        <ele>1228.2</ele>
        <time>2024-07-25T23:01:36.576Z</time>
      </trkpt>
      <trkpt lat="42.80126" lon="0.39759">
        <ele>1224.6</ele>
        <time>2024-07-25T23:01:38.305Z</time>
      </trkpt>
      <trkpt lat="42.80132" lon="0.39764">
        <ele>1222.2</ele>
        <time>2024-07-25T23:01:39.676Z</time>
      </trkpt>
      <trkpt lat="42.80141" lon="0.39765">
        <ele>1220.4</ele>
        <time>2024-07-25T23:01:41.438Z</time>
      </trkpt>
      <trkpt lat="42.8016" lon="0.39758">
        <ele>1216.1</ele>
        <time>2024-07-25T23:01:45.276Z</time>
      </trkpt>
      <trkpt lat="42.80178" lon="0.39744">
        <ele>1214</ele>
        <time>2024-07-25T23:01:49.319Z</time>
      </trkpt>
      <trkpt lat="42.802" lon="0.39722">
        <ele>1211.5</ele>
        <time>2024-07-25T23:01:54.641Z</time>
      </trkpt>
      <trkpt lat="42.8021" lon="0.39716">
        <ele>1210</ele>
        <time>2024-07-25T23:01:56.772Z</time>
      </trkpt>
      <trkpt lat="42.8023" lon="0.39699">
        <ele>1208.3</ele>
        <time>2024-07-25T23:02:01.369Z</time>
      </trkpt>
      <trkpt lat="42.80239" lon="0.39695">
        <ele>1207.8</ele>
        <time>2024-07-25T23:02:03.216Z</time>
      </trkpt>
      <trkpt lat="42.80247" lon="0.39695">
        <ele>1206.3</ele>
        <time>2024-07-25T23:02:04.776Z</time>
      </trkpt>
      <trkpt lat="42.80257" lon="0.39692">
        <ele>1203.8</ele>
        <time>2024-07-25T23:02:06.773Z</time>
      </trkpt>
      <trkpt lat="42.80264" lon="0.39687">
        <ele>1202.3</ele>
        <time>2024-07-25T23:02:08.315Z</time>
      </trkpt>
      <trkpt lat="42.80281" lon="0.39668">
        <ele>1201.1</ele>
        <time>2024-07-25T23:02:12.603Z</time>
      </trkpt>
      <trkpt lat="42.80291" lon="0.3966">
        <ele>1200.6</ele>
        <time>2024-07-25T23:02:14.874Z</time>
      </trkpt>
      <trkpt lat="42.80304" lon="0.39653">
        <ele>1199.2</ele>
        <time>2024-07-25T23:02:17.600Z</time>
      </trkpt>
      <trkpt lat="42.80326" lon="0.39647">
        <ele>1195.1</ele>
        <time>2024-07-25T23:02:21.976Z</time>
      </trkpt>
      <trkpt lat="42.80369" lon="0.39624">
        <ele>1189.7</ele>
        <time>2024-07-25T23:02:30.986Z</time>
      </trkpt>
      <trkpt lat="42.80387" lon="0.39617">
        <ele>1187.3</ele>
        <time>2024-07-25T23:02:34.637Z</time>
      </trkpt>
      <trkpt lat="42.80396" lon="0.39612">
        <ele>1187.1</ele>
        <time>2024-07-25T23:02:36.672Z</time>
      </trkpt>
      <trkpt lat="42.8042" lon="0.39594">
        <ele>1184.5</ele>
        <time>2024-07-25T23:02:42.015Z</time>
      </trkpt>
      <trkpt lat="42.80428" lon="0.39598">
        <ele>1181.4</ele>
        <time>2024-07-25T23:02:43.677Z</time>
      </trkpt>
      <trkpt lat="42.80428" lon="0.39608">
        <ele>1179.5</ele>
        <time>2024-07-25T23:02:45.108Z</time>
      </trkpt>
      <trkpt lat="42.80424" lon="0.39614">
        <ele>1179.2</ele>
        <time>2024-07-25T23:02:46.268Z</time>
      </trkpt>
      <trkpt lat="42.80418" lon="0.39619">
        <ele>1179.4</ele>
        <time>2024-07-25T23:02:47.982Z</time>
        <extensions>
          <visugpx:TrkExtension xmlns:visugpx="https://www.visugpx.com/editgpx/">
            <visugpx:node>52</visugpx:node>
            </visugpx:TrkExtension>
        </extensions>
      </trkpt>
      <trkpt lat="42.80401" lon="0.39633">
        <ele>1178.2</ele>
        <time>2024-07-25T23:02:51.856Z</time>
      </trkpt>
      <trkpt lat="42.80294" lon="0.39774">
        <ele>1161.5</ele>
        <time>2024-07-25T23:03:20.885Z</time>
      </trkpt>
      <trkpt lat="42.80272" lon="0.39825">
        <ele>1155.2</ele>
        <time>2024-07-25T23:03:29.351Z</time>
      </trkpt>
      <trkpt lat="42.80238" lon="0.39852">
        <ele>1153.1</ele>
        <time>2024-07-25T23:03:37.026Z</time>
      </trkpt>
      <trkpt lat="42.80218" lon="0.39863">
        <ele>1150.7</ele>
        <time>2024-07-25T23:03:41.233Z</time>
      </trkpt>
      <trkpt lat="42.80205" lon="0.39868">
        <ele>1150.3</ele>
        <time>2024-07-25T23:03:43.986Z</time>
      </trkpt>
      <trkpt lat="42.80182" lon="0.39873">
        <ele>1153</ele>
        <time>2024-07-25T23:03:51.608Z</time>
      </trkpt>
      <trkpt lat="42.80177" lon="0.39877">
        <ele>1152.3</ele>
        <time>2024-07-25T23:03:52.739Z</time>
      </trkpt>
      <trkpt lat="42.80174" lon="0.39882">
        <ele>1150.5</ele>
        <time>2024-07-25T23:03:53.663Z</time>
      </trkpt>
      <trkpt lat="42.80174" lon="0.39892">
        <ele>1146.2</ele>
        <time>2024-07-25T23:03:55.094Z</time>
      </trkpt>
      <trkpt lat="42.80176" lon="0.39894">
        <ele>1145.2</ele>
        <time>2024-07-25T23:03:55.578Z</time>
      </trkpt>
      <trkpt lat="42.80181" lon="0.39895">
        <ele>1144.1</ele>
        <time>2024-07-25T23:03:56.563Z</time>
      </trkpt>
      <trkpt lat="42.80265" lon="0.39878">
        <ele>1134.5</ele>
        <time>2024-07-25T23:04:13.127Z</time>
      </trkpt>
      <trkpt lat="42.80325" lon="0.39861">
        <ele>1127.5</ele>
        <time>2024-07-25T23:04:25.080Z</time>
      </trkpt>
      <trkpt lat="42.80333" lon="0.39857">
        <ele>1127.1</ele>
        <time>2024-07-25T23:04:26.742Z</time>
        <extensions>
          <visugpx:TrkExtension xmlns:visugpx="https://www.visugpx.com/editgpx/">
            <visugpx:node>53</visugpx:node>
            </visugpx:TrkExtension>
        </extensions>
      </trkpt>
      <trkpt lat="42.80355" lon="0.3984">
        <ele>1125.6</ele>
        <time>2024-07-25T23:04:31.674Z</time>
      </trkpt>
      <trkpt lat="42.80361" lon="0.39839">
        <ele>1124.2</ele>
        <time>2024-07-25T23:04:32.853Z</time>
      </trkpt>
      <trkpt lat="42.80365" lon="0.39841">
        <ele>1122.7</ele>
        <time>2024-07-25T23:04:33.684Z</time>
      </trkpt>
      <trkpt lat="42.80367" lon="0.39845">
        <ele>1121.4</ele>
        <time>2024-07-25T23:04:34.377Z</time>
      </trkpt>
      <trkpt lat="42.80365" lon="0.39857">
        <ele>1120.1</ele>
        <time>2024-07-25T23:04:36.138Z</time>
      </trkpt>
      <trkpt lat="42.80356" lon="0.39868">
        <ele>1119.5</ele>
        <time>2024-07-25T23:04:38.496Z</time>
      </trkpt>
      <trkpt lat="42.80329" lon="0.3989">
        <ele>1116.8</ele>
        <time>2024-07-25T23:04:44.631Z</time>
      </trkpt>
      <trkpt lat="42.80272" lon="0.39925">
        <ele>1109.3</ele>
        <time>2024-07-25T23:04:56.825Z</time>
      </trkpt>
      <trkpt lat="42.80233" lon="0.39944">
        <ele>1106.2</ele>
        <time>2024-07-25T23:05:04.903Z</time>
      </trkpt>
      <trkpt lat="42.80196" lon="0.39959">
        <ele>1105.6</ele>
        <time>2024-07-25T23:05:13.110Z</time>
      </trkpt>
      <trkpt lat="42.80192" lon="0.39964">
        <ele>1105</ele>
        <time>2024-07-25T23:05:14.168Z</time>
      </trkpt>
      <trkpt lat="42.80187" lon="0.39976">
        <ele>1102.3</ele>
        <time>2024-07-25T23:05:16.143Z</time>
      </trkpt>
      <trkpt lat="42.80188" lon="0.39985">
        <ele>1099.7</ele>
        <time>2024-07-25T23:05:17.446Z</time>
      </trkpt>
      <trkpt lat="42.80192" lon="0.39987">
        <ele>1098.9</ele>
        <time>2024-07-25T23:05:18.277Z</time>
      </trkpt>
      <trkpt lat="42.8022" lon="0.39983">
        <ele>1095.7</ele>
        <time>2024-07-25T23:05:23.768Z</time>
      </trkpt>
      <trkpt lat="42.80308" lon="0.39958">
        <ele>1088.5</ele>
        <time>2024-07-25T23:05:41.301Z</time>
      </trkpt>
      <trkpt lat="42.8036" lon="0.39951">
        <ele>1082.5</ele>
        <time>2024-07-25T23:05:51.493Z</time>
      </trkpt>
      <trkpt lat="42.80378" lon="0.39947">
        <ele>1081.4</ele>
        <time>2024-07-25T23:05:55.050Z</time>
      </trkpt>
      <trkpt lat="42.80413" lon="0.39932">
        <ele>1078.2</ele>
        <time>2024-07-25T23:06:02.206Z</time>
      </trkpt>
      <trkpt lat="42.80436" lon="0.39913">
        <ele>1078.6</ele>
        <time>2024-07-25T23:06:08.484Z</time>
      </trkpt>
      <trkpt lat="42.80444" lon="0.39914">
        <ele>1076.5</ele>
        <time>2024-07-25T23:06:10.051Z</time>
      </trkpt>
      <trkpt lat="42.80446" lon="0.39918">
        <ele>1074.8</ele>
        <time>2024-07-25T23:06:10.744Z</time>
      </trkpt>
      <trkpt lat="42.80445" lon="0.39929">
        <ele>1072.6</ele>
        <time>2024-07-25T23:06:12.330Z</time>
      </trkpt>
      <trkpt lat="42.80442" lon="0.39933">
        <ele>1072.3</ele>
        <time>2024-07-25T23:06:13.149Z</time>
      </trkpt>
      <trkpt lat="42.80406" lon="0.39963">
        <ele>1068.2</ele>
        <time>2024-07-25T23:06:21.379Z</time>
        <extensions>
          <visugpx:TrkExtension xmlns:visugpx="https://www.visugpx.com/editgpx/">
            <visugpx:node>54</visugpx:node>
            </visugpx:TrkExtension>
        </extensions>
      </trkpt>
      <trkpt lat="42.80363" lon="0.39995">
        <ele>1064.7</ele>
        <time>2024-07-25T23:06:30.934Z</time>
      </trkpt>
      <trkpt lat="42.80334" lon="0.40011">
        <ele>1060</ele>
        <time>2024-07-25T23:06:37.037Z</time>
      </trkpt>
      <trkpt lat="42.80278" lon="0.40049">
        <ele>1056.3</ele>
        <time>2024-07-25T23:06:49.238Z</time>
      </trkpt>
      <trkpt lat="42.80239" lon="0.40068">
        <ele>1052.7</ele>
        <time>2024-07-25T23:06:57.316Z</time>
      </trkpt>
      <trkpt lat="42.80186" lon="0.40082">
        <ele>1050.9</ele>
        <time>2024-07-25T23:07:08.199Z</time>
      </trkpt>
      <trkpt lat="42.8018" lon="0.40086">
        <ele>1049.9</ele>
        <time>2024-07-25T23:07:09.502Z</time>
      </trkpt>
      <trkpt lat="42.80175" lon="0.40094">
        <ele>1048.5</ele>
        <time>2024-07-25T23:07:11.006Z</time>
      </trkpt>
      <trkpt lat="42.80175" lon="0.40099">
        <ele>1047.5</ele>
        <time>2024-07-25T23:07:11.721Z</time>
      </trkpt>
      <trkpt lat="42.80179" lon="0.40106">
        <ele>1045.8</ele>
        <time>2024-07-25T23:07:12.991Z</time>
      </trkpt>
      <trkpt lat="42.80201" lon="0.40107">
        <ele>1043</ele>
        <time>2024-07-25T23:07:17.284Z</time>
      </trkpt>
      <trkpt lat="42.80257" lon="0.40102">
        <ele>1036.6</ele>
        <time>2024-07-25T23:07:28.230Z</time>
      </trkpt>
      <trkpt lat="42.8033" lon="0.40087">
        <ele>1027.1</ele>
        <time>2024-07-25T23:07:42.629Z</time>
      </trkpt>
      <trkpt lat="42.80385" lon="0.40078">
        <ele>1025.2</ele>
        <time>2024-07-25T23:07:53.765Z</time>
      </trkpt>
      <trkpt lat="42.80416" lon="0.40089">
        <ele>1019.5</ele>
        <time>2024-07-25T23:08:00.013Z</time>
      </trkpt>
      <trkpt lat="42.80433" lon="0.40087">
        <ele>1016.5</ele>
        <time>2024-07-25T23:08:03.341Z</time>
      </trkpt>
      <trkpt lat="42.80453" lon="0.40075">
        <ele>1016</ele>
        <time>2024-07-25T23:08:07.885Z</time>
      </trkpt>
      <trkpt lat="42.8047" lon="0.40073">
        <ele>1013.7</ele>
        <time>2024-07-25T23:08:11.213Z</time>
      </trkpt>
      <trkpt lat="42.80477" lon="0.4007">
        <ele>1012.8</ele>
        <time>2024-07-25T23:08:12.644Z</time>
      </trkpt>
      <trkpt lat="42.80507" lon="0.4005">
        <ele>1009.2</ele>
        <time>2024-07-25T23:08:19.158Z</time>
      </trkpt>
      <trkpt lat="42.8054" lon="0.40022">
        <ele>1005.5</ele>
        <time>2024-07-25T23:08:26.740Z</time>
      </trkpt>
      <trkpt lat="42.80592" lon="0.39984">
        <ele>1000.3</ele>
        <time>2024-07-25T23:08:38.248Z</time>
      </trkpt>
      <trkpt lat="42.806" lon="0.39979">
        <ele>999.7</ele>
        <time>2024-07-25T23:08:39.964Z</time>
      </trkpt>
      <trkpt lat="42.80615" lon="0.39978">
        <ele>998</ele>
        <time>2024-07-25T23:08:42.893Z</time>
      </trkpt>
      <trkpt lat="42.80639" lon="0.39983">
        <ele>996</ele>
        <time>2024-07-25T23:08:47.629Z</time>
      </trkpt>
      <trkpt lat="42.80675" lon="0.3998">
        <ele>992.3</ele>
        <time>2024-07-25T23:08:54.664Z</time>
      </trkpt>
      <trkpt lat="42.80683" lon="0.39981">
        <ele>991.1</ele>
        <time>2024-07-25T23:08:56.231Z</time>
      </trkpt>
      <trkpt lat="42.80692" lon="0.39985">
        <ele>989.4</ele>
        <time>2024-07-25T23:08:58.077Z</time>
      </trkpt>
      <trkpt lat="42.80708" lon="0.39996">
        <ele>987</ele>
        <time>2024-07-25T23:09:01.572Z</time>
      </trkpt>
      <trkpt lat="42.80724" lon="0.4001">
        <ele>983.9</ele>
        <time>2024-07-25T23:09:05.281Z</time>
      </trkpt>
      <trkpt lat="42.80747" lon="0.40036">
        <ele>980.6</ele>
        <time>2024-07-25T23:09:11.109Z</time>
      </trkpt>
      <trkpt lat="42.80768" lon="0.40068">
        <ele>977.1</ele>
        <time>2024-07-25T23:09:17.252Z</time>
      </trkpt>
      <trkpt lat="42.80789" lon="0.40095">
        <ele>973.6</ele>
        <time>2024-07-25T23:09:22.883Z</time>
      </trkpt>
      <trkpt lat="42.80797" lon="0.40102">
        <ele>972.7</ele>
        <time>2024-07-25T23:09:24.737Z</time>
      </trkpt>
      <trkpt lat="42.80812" lon="0.40111">
        <ele>971.5</ele>
        <time>2024-07-25T23:09:27.934Z</time>
      </trkpt>
      <trkpt lat="42.80834" lon="0.40122">
        <ele>968.9</ele>
        <time>2024-07-25T23:09:32.504Z</time>
        <extensions>
          <visugpx:TrkExtension xmlns:visugpx="https://www.visugpx.com/editgpx/">
            <visugpx:node>55</visugpx:node>
            </visugpx:TrkExtension>
        </extensions>
      </trkpt>
      <trkpt lat="42.80902" lon="0.40155">
        <ele>965.7</ele>
        <time>2024-07-25T23:09:46.593Z</time>
      </trkpt>
      <trkpt lat="42.80923" lon="0.40173">
        <ele>964.1</ele>
        <time>2024-07-25T23:09:51.431Z</time>
      </trkpt>
      <trkpt lat="42.80925" lon="0.40182">
        <ele>963.7</ele>
        <time>2024-07-25T23:09:52.777Z</time>
      </trkpt>
      <trkpt lat="42.80938" lon="0.40182">
        <ele>964.1</ele>
        <time>2024-07-25T23:09:55.969Z</time>
      </trkpt>
      <trkpt lat="42.80957" lon="0.40189">
        <ele>964.2</ele>
        <time>2024-07-25T23:10:00.425Z</time>
      </trkpt>
      <trkpt lat="42.80973" lon="0.40197">
        <ele>963.9</ele>
        <time>2024-07-25T23:10:04.026Z</time>
      </trkpt>
      <trkpt lat="42.80994" lon="0.40214">
        <ele>964.9</ele>
        <time>2024-07-25T23:10:10.222Z</time>
      </trkpt>
      <trkpt lat="42.81024" lon="0.40248">
        <ele>967.2</ele>
        <time>2024-07-25T23:10:20.720Z</time>
      </trkpt>
      <trkpt lat="42.81039" lon="0.40262">
        <ele>968.8</ele>
        <time>2024-07-25T23:10:26.116Z</time>
      </trkpt>
      <trkpt lat="42.8108" lon="0.40285">
        <ele>972.4</ele>
        <time>2024-07-25T23:10:38.973Z</time>
      </trkpt>
      <trkpt lat="42.81086" lon="0.4029">
        <ele>973</ele>
        <time>2024-07-25T23:10:41.041Z</time>
      </trkpt>
      <trkpt lat="42.81096" lon="0.40304">
        <ele>974.7</ele>
        <time>2024-07-25T23:10:45.777Z</time>
      </trkpt>
      <trkpt lat="42.81114" lon="0.40352">
        <ele>982.1</ele>
        <time>2024-07-25T23:11:02.633Z</time>
      </trkpt>
      <trkpt lat="42.81122" lon="0.40363">
        <ele>983.5</ele>
        <time>2024-07-25T23:11:06.450Z</time>
      </trkpt>
      <trkpt lat="42.81139" lon="0.40377">
        <ele>984.4</ele>
        <time>2024-07-25T23:11:11.561Z</time>
      </trkpt>
      <trkpt lat="42.8115" lon="0.40389">
        <ele>984.8</ele>
        <time>2024-07-25T23:11:14.993Z</time>
      </trkpt>
      <trkpt lat="42.8119" lon="0.40452">
        <ele>978.3</ele>
        <time>2024-07-25T23:11:26.915Z</time>
      </trkpt>
      <trkpt lat="42.81214" lon="0.40487">
        <ele>976.3</ele>
        <time>2024-07-25T23:11:33.770Z</time>
      </trkpt>
      <trkpt lat="42.8123" lon="0.40506">
        <ele>970.7</ele>
        <time>2024-07-25T23:11:37.909Z</time>
      </trkpt>
      <trkpt lat="42.81236" lon="0.4051">
        <ele>970.5</ele>
        <time>2024-07-25T23:11:39.269Z</time>
      </trkpt>
      <trkpt lat="42.81245" lon="0.40513">
        <ele>970.2</ele>
        <time>2024-07-25T23:11:41.142Z</time>
      </trkpt>
      <trkpt lat="42.81256" lon="0.40511">
        <ele>968.7</ele>
        <time>2024-07-25T23:11:43.306Z</time>
      </trkpt>
      <trkpt lat="42.81268" lon="0.40503">
        <ele>966.4</ele>
        <time>2024-07-25T23:11:45.912Z</time>
      </trkpt>
      <trkpt lat="42.81297" lon="0.40475">
        <ele>963.3</ele>
        <time>2024-07-25T23:11:52.843Z</time>
      </trkpt>
      <trkpt lat="42.81305" lon="0.4047">
        <ele>962.3</ele>
        <time>2024-07-25T23:11:54.560Z</time>
      </trkpt>
      <trkpt lat="42.8132" lon="0.40466">
        <ele>961.3</ele>
        <time>2024-07-25T23:11:57.541Z</time>
      </trkpt>
      <trkpt lat="42.81335" lon="0.40469">
        <ele>960.1</ele>
        <time>2024-07-25T23:12:00.498Z</time>
      </trkpt>
      <trkpt lat="42.81383" lon="0.40505">
        <ele>955.9</ele>
        <time>2024-07-25T23:12:11.183Z</time>
        <extensions>
          <visugpx:TrkExtension xmlns:visugpx="https://www.visugpx.com/editgpx/">
            <visugpx:node>56</visugpx:node>
            </visugpx:TrkExtension>
        </extensions>
      </trkpt>
      <trkpt lat="42.81375" lon="0.40525">
        <ele>954.7</ele>
        <time>2024-07-25T23:12:14.443Z</time>
      </trkpt>
      <trkpt lat="42.81363" lon="0.40547">
        <ele>953.5</ele>
        <time>2024-07-25T23:12:18.365Z</time>
      </trkpt>
      <trkpt lat="42.81315" lon="0.40622">
        <ele>949.3</ele>
        <time>2024-07-25T23:12:32.606Z</time>
      </trkpt>
      <trkpt lat="42.81237" lon="0.40749">
        <ele>951.5</ele>
        <time>2024-07-25T23:13:01.261Z</time>
      </trkpt>
      <trkpt lat="42.81194" lon="0.40807">
        <ele>945.8</ele>
        <time>2024-07-25T23:13:13.060Z</time>
      </trkpt>
      <trkpt lat="42.81185" lon="0.40818">
        <ele>945.2</ele>
        <time>2024-07-25T23:13:15.418Z</time>
      </trkpt>
      <trkpt lat="42.81159" lon="0.40844">
        <ele>942.4</ele>
        <time>2024-07-25T23:13:21.707Z</time>
      </trkpt>
      <trkpt lat="42.81155" lon="0.4085">
        <ele>940.9</ele>
        <time>2024-07-25T23:13:22.867Z</time>
      </trkpt>
      <trkpt lat="42.81152" lon="0.40862">
        <ele>937.7</ele>
        <time>2024-07-25T23:13:24.681Z</time>
      </trkpt>
      <trkpt lat="42.81154" lon="0.40872">
        <ele>938.9</ele>
        <time>2024-07-25T23:13:27.580Z</time>
        <extensions>
          <visugpx:TrkExtension xmlns:visugpx="https://www.visugpx.com/editgpx/">
            <visugpx:node>57</visugpx:node>
            </visugpx:TrkExtension>
        </extensions>
      </trkpt>
      <trkpt lat="42.81158" lon="0.40886">
        <ele>940.6</ele>
        <time>2024-07-25T23:13:31.727Z</time>
      </trkpt>
      <trkpt lat="42.81162" lon="0.40892">
        <ele>941.5</ele>
        <time>2024-07-25T23:13:33.941Z</time>
      </trkpt>
      <trkpt lat="42.81179" lon="0.40909">
        <ele>941.6</ele>
        <time>2024-07-25T23:13:38.710Z</time>
      </trkpt>
      <trkpt lat="42.81187" lon="0.40914">
        <ele>940.9</ele>
        <time>2024-07-25T23:13:40.426Z</time>
      </trkpt>
      <trkpt lat="42.81195" lon="0.40909">
        <ele>939.7</ele>
        <time>2024-07-25T23:13:42.143Z</time>
      </trkpt>
      <trkpt lat="42.81204" lon="0.4091">
        <ele>938.6</ele>
        <time>2024-07-25T23:13:43.904Z</time>
      </trkpt>
      <trkpt lat="42.81217" lon="0.40918">
        <ele>937.6</ele>
        <time>2024-07-25T23:13:46.686Z</time>
      </trkpt>
      <trkpt lat="42.81244" lon="0.40939">
        <ele>937.2</ele>
        <time>2024-07-25T23:13:53.349Z</time>
      </trkpt>
      <trkpt lat="42.81262" lon="0.40948">
        <ele>936.4</ele>
        <time>2024-07-25T23:13:57.119Z</time>
      </trkpt>
      <trkpt lat="42.81287" lon="0.40957">
        <ele>936.2</ele>
        <time>2024-07-25T23:14:02.748Z</time>
      </trkpt>
      <trkpt lat="42.81301" lon="0.40964">
        <ele>936.5</ele>
        <time>2024-07-25T23:14:06.287Z</time>
      </trkpt>
      <trkpt lat="42.81309" lon="0.40974">
        <ele>936.8</ele>
        <time>2024-07-25T23:14:08.926Z</time>
      </trkpt>
      <trkpt lat="42.81313" lon="0.40989">
        <ele>937.1</ele>
        <time>2024-07-25T23:14:11.753Z</time>
      </trkpt>
      <trkpt lat="42.81324" lon="0.41088">
        <ele>937.7</ele>
        <time>2024-07-25T23:14:28.545Z</time>
      </trkpt>
      <trkpt lat="42.8133" lon="0.41172">
        <ele>938.3</ele>
        <time>2024-07-25T23:14:42.766Z</time>
      </trkpt>
      <trkpt lat="42.81343" lon="0.41254">
        <ele>939.4</ele>
        <time>2024-07-25T23:14:57.269Z</time>
      </trkpt>
      <trkpt lat="42.81344" lon="0.41323">
        <ele>941.2</ele>
        <time>2024-07-25T23:15:09.891Z</time>
      </trkpt>
      <trkpt lat="42.81351" lon="0.4135">
        <ele>941.9</ele>
        <time>2024-07-25T23:15:15.090Z</time>
        <extensions>
          <visugpx:TrkExtension xmlns:visugpx="https://www.visugpx.com/editgpx/">
            <visugpx:node>58</visugpx:node>
            </visugpx:TrkExtension>
        </extensions>
      </trkpt>
      <trkpt lat="42.81358" lon="0.41364">
        <ele>942.3</ele>
        <time>2024-07-25T23:15:18.156Z</time>
      </trkpt>
      <trkpt lat="42.81367" lon="0.41374">
        <ele>942.7</ele>
        <time>2024-07-25T23:15:21.040Z</time>
      </trkpt>
      <trkpt lat="42.8138" lon="0.41382">
        <ele>942.8</ele>
        <time>2024-07-25T23:15:24.289Z</time>
      </trkpt>
      <trkpt lat="42.814" lon="0.41389">
        <ele>942.6</ele>
        <time>2024-07-25T23:15:28.757Z</time>
      </trkpt>
      <trkpt lat="42.81425" lon="0.41393">
        <ele>942.3</ele>
        <time>2024-07-25T23:15:34.168Z</time>
      </trkpt>
      <trkpt lat="42.8148" lon="0.41393">
        <ele>941.1</ele>
        <time>2024-07-25T23:15:45.642Z</time>
      </trkpt>
      <trkpt lat="42.81497" lon="0.41387">
        <ele>940.9</ele>
        <time>2024-07-25T23:15:49.422Z</time>
      </trkpt>
      <trkpt lat="42.81511" lon="0.41377">
        <ele>940.6</ele>
        <time>2024-07-25T23:15:52.748Z</time>
      </trkpt>
      <trkpt lat="42.81542" lon="0.41337">
        <ele>939.1</ele>
        <time>2024-07-25T23:16:01.306Z</time>
      </trkpt>
      <trkpt lat="42.81556" lon="0.41325">
        <ele>938.7</ele>
        <time>2024-07-25T23:16:04.732Z</time>
      </trkpt>
      <trkpt lat="42.8157" lon="0.4132">
        <ele>939</ele>
        <time>2024-07-25T23:16:08.174Z</time>
      </trkpt>
      <trkpt lat="42.81578" lon="0.41319">
        <ele>939.3</ele>
        <time>2024-07-25T23:16:10.188Z</time>
      </trkpt>
      <trkpt lat="42.81602" lon="0.41317">
        <ele>940.8</ele>
        <time>2024-07-25T23:16:16.732Z</time>
      </trkpt>
      <trkpt lat="42.81614" lon="0.41318">
        <ele>941.6</ele>
        <time>2024-07-25T23:16:20.050Z</time>
      </trkpt>
      <trkpt lat="42.81621" lon="0.41323">
        <ele>942</ele>
        <time>2024-07-25T23:16:22.119Z</time>
      </trkpt>
      <trkpt lat="42.81624" lon="0.41328">
        <ele>942.1</ele>
        <time>2024-07-25T23:16:23.248Z</time>
      </trkpt>
      <trkpt lat="42.81635" lon="0.41358">
        <ele>942.8</ele>
        <time>2024-07-25T23:16:29.243Z</time>
      </trkpt>
      <trkpt lat="42.81639" lon="0.41364">
        <ele>943.4</ele>
        <time>2024-07-25T23:16:31.089Z</time>
      </trkpt>
      <trkpt lat="42.81649" lon="0.41372">
        <ele>944.6</ele>
        <time>2024-07-25T23:16:34.720Z</time>
      </trkpt>
      <trkpt lat="42.81666" lon="0.41377">
        <ele>946</ele>
        <time>2024-07-25T23:16:39.752Z</time>
      </trkpt>
      <trkpt lat="42.81673" lon="0.41377">
        <ele>946.8</ele>
        <time>2024-07-25T23:16:42.029Z</time>
      </trkpt>
      <trkpt lat="42.81685" lon="0.41374">
        <ele>947.6</ele>
        <time>2024-07-25T23:16:45.385Z</time>
      </trkpt>
      <trkpt lat="42.81706" lon="0.41365">
        <ele>947.9</ele>
        <time>2024-07-25T23:16:50.504Z</time>
      </trkpt>
      <trkpt lat="42.81711" lon="0.41366">
        <ele>948.5</ele>
        <time>2024-07-25T23:16:52.175Z</time>
      </trkpt>
      <trkpt lat="42.81718" lon="0.41373">
        <ele>950</ele>
        <time>2024-07-25T23:16:55.677Z</time>
      </trkpt>
      <trkpt lat="42.81721" lon="0.41385">
        <ele>951.6</ele>
        <time>2024-07-25T23:16:59.418Z</time>
      </trkpt>
      <trkpt lat="42.81721" lon="0.41404">
        <ele>953.1</ele>
        <time>2024-07-25T23:17:03.847Z</time>
      </trkpt>
      <trkpt lat="42.81716" lon="0.41491">
        <ele>959.4</ele>
        <time>2024-07-25T23:17:23.544Z</time>
      </trkpt>
      <trkpt lat="42.81719" lon="0.41507">
        <ele>960.6</ele>
        <time>2024-07-25T23:17:27.280Z</time>
      </trkpt>
      <trkpt lat="42.81725" lon="0.41517">
        <ele>960.9</ele>
        <time>2024-07-25T23:17:29.613Z</time>
      </trkpt>
      <trkpt lat="42.81735" lon="0.41521">
        <ele>961.9</ele>
        <time>2024-07-25T23:17:32.793Z</time>
      </trkpt>
      <trkpt lat="42.81741" lon="0.4152">
        <ele>961.9</ele>
        <time>2024-07-25T23:17:34.140Z</time>
      </trkpt>
      <trkpt lat="42.81767" lon="0.41508">
        <ele>963.8</ele>
        <time>2024-07-25T23:17:41.784Z</time>
      </trkpt>
      <trkpt lat="42.81801" lon="0.41499">
        <ele>967.1</ele>
        <time>2024-07-25T23:17:52.326Z</time>
      </trkpt>
      <trkpt lat="42.81819" lon="0.4149">
        <ele>968.4</ele>
        <time>2024-07-25T23:17:57.639Z</time>
      </trkpt>
      <trkpt lat="42.81845" lon="0.41472">
        <ele>969.2</ele>
        <time>2024-07-25T23:18:04.723Z</time>
      </trkpt>
      <trkpt lat="42.81851" lon="0.41471">
        <ele>969.8</ele>
        <time>2024-07-25T23:18:06.588Z</time>
      </trkpt>
      <trkpt lat="42.81861" lon="0.41475">
        <ele>971.1</ele>
        <time>2024-07-25T23:18:10.108Z</time>
      </trkpt>
      <trkpt lat="42.81865" lon="0.41479">
        <ele>971.1</ele>
        <time>2024-07-25T23:18:11.214Z</time>
      </trkpt>
      <trkpt lat="42.8187" lon="0.41492">
        <ele>971.2</ele>
        <time>2024-07-25T23:18:13.684Z</time>
        <extensions>
          <visugpx:TrkExtension xmlns:visugpx="https://www.visugpx.com/editgpx/">
            <visugpx:node>59</visugpx:node>
            </visugpx:TrkExtension>
        </extensions>
      </trkpt>
      <trkpt lat="42.81872" lon="0.41529">
        <ele>973.4</ele>
        <time>2024-07-25T23:18:21.566Z</time>
      </trkpt>
      <trkpt lat="42.81879" lon="0.41545">
        <ele>975.8</ele>
        <time>2024-07-25T23:18:27.139Z</time>
      </trkpt>
      <trkpt lat="42.81889" lon="0.41553">
        <ele>977.5</ele>
        <time>2024-07-25T23:18:31.380Z</time>
      </trkpt>
      <trkpt lat="42.81895" lon="0.41555">
        <ele>978.8</ele>
        <time>2024-07-25T23:18:34.264Z</time>
      </trkpt>
      <trkpt lat="42.81909" lon="0.41556">
        <ele>981</ele>
        <time>2024-07-25T23:18:39.592Z</time>
      </trkpt>
      <trkpt lat="42.82017" lon="0.41534">
        <ele>990.2</ele>
        <time>2024-07-25T23:19:11.589Z</time>
      </trkpt>
      <trkpt lat="42.82055" lon="0.41536">
        <ele>988.9</ele>
        <time>2024-07-25T23:19:19.236Z</time>
      </trkpt>
      <trkpt lat="42.82075" lon="0.41541">
        <ele>991.9</ele>
        <time>2024-07-25T23:19:26.699Z</time>
      </trkpt>
      <trkpt lat="42.82084" lon="0.41545">
        <ele>993.5</ele>
        <time>2024-07-25T23:19:30.464Z</time>
      </trkpt>
      <trkpt lat="42.82092" lon="0.4155">
        <ele>994.3</ele>
        <time>2024-07-25T23:19:33.102Z</time>
      </trkpt>
      <trkpt lat="42.8212" lon="0.41575">
        <ele>998</ele>
        <time>2024-07-25T23:19:43.848Z</time>
      </trkpt>
      <trkpt lat="42.82131" lon="0.41581">
        <ele>998.8</ele>
        <time>2024-07-25T23:19:47.129Z</time>
      </trkpt>
      <trkpt lat="42.82168" lon="0.41596">
        <ele>1001.8</ele>
        <time>2024-07-25T23:19:58.191Z</time>
      </trkpt>
      <trkpt lat="42.82177" lon="0.41598">
        <ele>1002.4</ele>
        <time>2024-07-25T23:20:00.701Z</time>
      </trkpt>
      <trkpt lat="42.82187" lon="0.41598">
        <ele>1002.6</ele>
        <time>2024-07-25T23:20:03.074Z</time>
      </trkpt>
      <trkpt lat="42.8221" lon="0.41592">
        <ele>1001.9</ele>
        <time>2024-07-25T23:20:07.843Z</time>
      </trkpt>
      <trkpt lat="42.82221" lon="0.41586">
        <ele>1000.7</ele>
        <time>2024-07-25T23:20:10.154Z</time>
      </trkpt>
      <trkpt lat="42.82279" lon="0.41545">
        <ele>997.1</ele>
        <time>2024-07-25T23:20:22.897Z</time>
      </trkpt>
      <trkpt lat="42.82341" lon="0.41512">
        <ele>998.2</ele>
        <time>2024-07-25T23:20:38.515Z</time>
      </trkpt>
      <trkpt lat="42.82357" lon="0.41498">
        <ele>998.5</ele>
        <time>2024-07-25T23:20:42.966Z</time>
      </trkpt>
      <trkpt lat="42.8238" lon="0.41469">
        <ele>996.3</ele>
        <time>2024-07-25T23:20:49.076Z</time>
      </trkpt>
      <trkpt lat="42.82389" lon="0.41463">
        <ele>997.7</ele>
        <time>2024-07-25T23:20:52.649Z</time>
      </trkpt>
      <trkpt lat="42.82397" lon="0.41463">
        <ele>997.1</ele>
        <time>2024-07-25T23:20:54.210Z</time>
      </trkpt>
      <trkpt lat="42.82404" lon="0.4147">
        <ele>998.4</ele>
        <time>2024-07-25T23:20:57.422Z</time>
      </trkpt>
      <trkpt lat="42.82409" lon="0.41481">
        <ele>999.5</ele>
        <time>2024-07-25T23:21:00.528Z</time>
      </trkpt>
      <trkpt lat="42.82387" lon="0.41492">
        <ele>1001.7</ele>
        <time>2024-07-25T23:21:07.625Z</time>
        <extensions>
          <visugpx:TrkExtension xmlns:visugpx="https://www.visugpx.com/editgpx/">
            <visugpx:node>60</visugpx:node>
            </visugpx:TrkExtension>
        </extensions>
      </trkpt>
      <trkpt lat="42.82373" lon="0.41503">
        <ele>1001.8</ele>
        <time>2024-07-25T23:21:11.297Z</time>
      </trkpt>
      <trkpt lat="42.82366" lon="0.41512">
        <ele>1003</ele>
        <time>2024-07-25T23:21:14.546Z</time>
      </trkpt>
      <trkpt lat="42.8233" lon="0.4157">
        <ele>1009.7</ele>
        <time>2024-07-25T23:21:33.065Z</time>
      </trkpt>
      <trkpt lat="42.82316" lon="0.41584">
        <ele>1011.9</ele>
        <time>2024-07-25T23:21:38.971Z</time>
      </trkpt>
      <trkpt lat="42.82138" lon="0.41708">
        <ele>1028.9</ele>
        <time>2024-07-25T23:22:37.703Z</time>
      </trkpt>
      <trkpt lat="42.82107" lon="0.41727">
        <ele>1033.1</ele>
        <time>2024-07-25T23:22:49.134Z</time>
      </trkpt>
      <trkpt lat="42.82047" lon="0.4176">
        <ele>1038.4</ele>
        <time>2024-07-25T23:23:07.942Z</time>
      </trkpt>
      <trkpt lat="42.81997" lon="0.41801">
        <ele>1043.2</ele>
        <time>2024-07-25T23:23:24.923Z</time>
      </trkpt>
      <trkpt lat="42.81943" lon="0.41837">
        <ele>1049.7</ele>
        <time>2024-07-25T23:23:44.060Z</time>
      </trkpt>
      <trkpt lat="42.81934" lon="0.41845">
        <ele>1050.1</ele>
        <time>2024-07-25T23:23:46.753Z</time>
      </trkpt>
      <trkpt lat="42.81909" lon="0.41874">
        <ele>1053.6</ele>
        <time>2024-07-25T23:23:57.148Z</time>
      </trkpt>
      <trkpt lat="42.81889" lon="0.4189">
        <ele>1055.4</ele>
        <time>2024-07-25T23:24:03.791Z</time>
      </trkpt>
      <trkpt lat="42.81873" lon="0.41899">
        <ele>1057.1</ele>
        <time>2024-07-25T23:24:09.113Z</time>
        <extensions>
          <visugpx:TrkExtension xmlns:visugpx="https://www.visugpx.com/editgpx/">
            <visugpx:node>61</visugpx:node>
            </visugpx:TrkExtension>
        </extensions>
      </trkpt>
      <trkpt lat="42.81834" lon="0.41919">
        <ele>1060.8</ele>
        <time>2024-07-25T23:24:21.514Z</time>
      </trkpt>
      <trkpt lat="42.81769" lon="0.41946">
        <ele>1067.1</ele>
        <time>2024-07-25T23:24:42.013Z</time>
      </trkpt>
      <trkpt lat="42.81715" lon="0.41972">
        <ele>1073.4</ele>
        <time>2024-07-25T23:25:00.366Z</time>
      </trkpt>
      <trkpt lat="42.81694" lon="0.41984">
        <ele>1075.7</ele>
        <time>2024-07-25T23:25:07.436Z</time>
      </trkpt>
      <trkpt lat="42.81671" lon="0.42003">
        <ele>1077.9</ele>
        <time>2024-07-25T23:25:15.251Z</time>
      </trkpt>
      <trkpt lat="42.81636" lon="0.42038">
        <ele>1081.5</ele>
        <time>2024-07-25T23:25:27.913Z</time>
      </trkpt>
      <trkpt lat="42.81598" lon="0.42082">
        <ele>1086.2</ele>
        <time>2024-07-25T23:25:43.035Z</time>
      </trkpt>
      <trkpt lat="42.81584" lon="0.4209">
        <ele>1088.2</ele>
        <time>2024-07-25T23:25:48.293Z</time>
      </trkpt>
      <trkpt lat="42.81519" lon="0.42117">
        <ele>1093.7</ele>
        <time>2024-07-25T23:26:07.981Z</time>
      </trkpt>
      <trkpt lat="42.81476" lon="0.42138">
        <ele>1098</ele>
        <time>2024-07-25T23:26:21.828Z</time>
      </trkpt>
      <trkpt lat="42.81452" lon="0.42155">
        <ele>1100.3</ele>
        <time>2024-07-25T23:26:29.775Z</time>
        <extensions>
          <visugpx:TrkExtension xmlns:visugpx="https://www.visugpx.com/editgpx/">
            <visugpx:node>62</visugpx:node>
            </visugpx:TrkExtension>
        </extensions>
      </trkpt>
      <trkpt lat="42.8144" lon="0.42168">
        <ele>1101.6</ele>
        <time>2024-07-25T23:26:34.275Z</time>
      </trkpt>
      <trkpt lat="42.81421" lon="0.42194">
        <ele>1104.1</ele>
        <time>2024-07-25T23:26:42.401Z</time>
      </trkpt>
      <trkpt lat="42.81403" lon="0.42228">
        <ele>1107.8</ele>
        <time>2024-07-25T23:26:52.624Z</time>
      </trkpt>
      <trkpt lat="42.81357" lon="0.42326">
        <ele>1114.7</ele>
        <time>2024-07-25T23:27:17.344Z</time>
      </trkpt>
      <trkpt lat="42.81349" lon="0.42339">
        <ele>1115.6</ele>
        <time>2024-07-25T23:27:20.847Z</time>
      </trkpt>
      <trkpt lat="42.81337" lon="0.42353">
        <ele>1116.8</ele>
        <time>2024-07-25T23:27:25.346Z</time>
      </trkpt>
      <trkpt lat="42.81331" lon="0.42357">
        <ele>1117.5</ele>
        <time>2024-07-25T23:27:27.448Z</time>
      </trkpt>
      <trkpt lat="42.81322" lon="0.4236">
        <ele>1119.1</ele>
        <time>2024-07-25T23:27:31.184Z</time>
        <extensions>
          <visugpx:TrkExtension xmlns:visugpx="https://www.visugpx.com/editgpx/">
            <visugpx:node>63</visugpx:node>
            </visugpx:TrkExtension>
        </extensions>
      </trkpt>
      <trkpt lat="42.81304" lon="0.42358">
        <ele>1121.2</ele>
        <time>2024-07-25T23:27:37.102Z</time>
      </trkpt>
      <trkpt lat="42.81236" lon="0.42321">
        <ele>1128.1</ele>
        <time>2024-07-25T23:27:59.307Z</time>
      </trkpt>
      <trkpt lat="42.81137" lon="0.42278">
        <ele>1137.4</ele>
        <time>2024-07-25T23:28:30.307Z</time>
      </trkpt>
      <trkpt lat="42.81112" lon="0.42262">
        <ele>1139.5</ele>
        <time>2024-07-25T23:28:38.177Z</time>
      </trkpt>
      <trkpt lat="42.81063" lon="0.42226">
        <ele>1144.9</ele>
        <time>2024-07-25T23:28:55.221Z</time>
      </trkpt>
      <trkpt lat="42.81041" lon="0.42207">
        <ele>1147.1</ele>
        <time>2024-07-25T23:29:02.858Z</time>
      </trkpt>
      <trkpt lat="42.81009" lon="0.42187">
        <ele>1150.2</ele>
        <time>2024-07-25T23:29:13.309Z</time>
      </trkpt>
      <trkpt lat="42.80989" lon="0.4218">
        <ele>1152.3</ele>
        <time>2024-07-25T23:29:19.736Z</time>
      </trkpt>
      <trkpt lat="42.80965" lon="0.42176">
        <ele>1155.2</ele>
        <time>2024-07-25T23:29:27.763Z</time>
      </trkpt>
      <trkpt lat="42.80933" lon="0.42175">
        <ele>1159.3</ele>
        <time>2024-07-25T23:29:38.705Z</time>
      </trkpt>
      <trkpt lat="42.8092" lon="0.4217">
        <ele>1159.7</ele>
        <time>2024-07-25T23:29:42.009Z</time>
        <extensions>
          <visugpx:TrkExtension xmlns:visugpx="https://www.visugpx.com/editgpx/">
            <visugpx:node>64</visugpx:node>
            </visugpx:TrkExtension>
        </extensions>
      </trkpt>
      <trkpt lat="42.8091" lon="0.4216">
        <ele>1159.4</ele>
        <time>2024-07-25T23:29:44.578Z</time>
      </trkpt>
      <trkpt lat="42.809" lon="0.42142">
        <ele>1159.5</ele>
        <time>2024-07-25T23:29:48.340Z</time>
      </trkpt>
      <trkpt lat="42.80893" lon="0.42133">
        <ele>1160.2</ele>
        <time>2024-07-25T23:29:51.051Z</time>
      </trkpt>
      <trkpt lat="42.80887" lon="0.42132">
        <ele>1161.6</ele>
        <time>2024-07-25T23:29:54.123Z</time>
      </trkpt>
      <trkpt lat="42.80881" lon="0.42136">
        <ele>1163.4</ele>
        <time>2024-07-25T23:29:58.085Z</time>
      </trkpt>
      <trkpt lat="42.80878" lon="0.42144">
        <ele>1165.3</ele>
        <time>2024-07-25T23:30:02.312Z</time>
      </trkpt>
      <trkpt lat="42.80879" lon="0.42151">
        <ele>1166.2</ele>
        <time>2024-07-25T23:30:04.417Z</time>
      </trkpt>
      <trkpt lat="42.80889" lon="0.42168">
        <ele>1166.4</ele>
        <time>2024-07-25T23:30:08.121Z</time>
      </trkpt>
      <trkpt lat="42.80922" lon="0.42203">
        <ele>1170.4</ele>
        <time>2024-07-25T23:30:20.865Z</time>
      </trkpt>
      <trkpt lat="42.80969" lon="0.42242">
        <ele>1175.2</ele>
        <time>2024-07-25T23:30:37.154Z</time>
      </trkpt>
      <trkpt lat="42.80981" lon="0.42255">
        <ele>1176.9</ele>
        <time>2024-07-25T23:30:42.082Z</time>
      </trkpt>
      <trkpt lat="42.81021" lon="0.42341">
        <ele>1182.7</ele>
        <time>2024-07-25T23:31:03.484Z</time>
      </trkpt>
      <trkpt lat="42.81061" lon="0.42421">
        <ele>1189.2</ele>
        <time>2024-07-25T23:31:24.822Z</time>
      </trkpt>
      <trkpt lat="42.81065" lon="0.42434">
        <ele>1190.2</ele>
        <time>2024-07-25T23:31:27.985Z</time>
      </trkpt>
      <trkpt lat="42.81067" lon="0.42453">
        <ele>1192.4</ele>
        <time>2024-07-25T23:31:33.322Z</time>
      </trkpt>
      <trkpt lat="42.81067" lon="0.42479">
        <ele>1195.3</ele>
        <time>2024-07-25T23:31:40.440Z</time>
      </trkpt>
      <trkpt lat="42.81071" lon="0.42496">
        <ele>1195.3</ele>
        <time>2024-07-25T23:31:43.360Z</time>
      </trkpt>
      <trkpt lat="42.81079" lon="0.42506">
        <ele>1196.3</ele>
        <time>2024-07-25T23:31:46.627Z</time>
      </trkpt>
      <trkpt lat="42.81089" lon="0.42512">
        <ele>1197.3</ele>
        <time>2024-07-25T23:31:49.910Z</time>
      </trkpt>
      <trkpt lat="42.81115" lon="0.42518">
        <ele>1199</ele>
        <time>2024-07-25T23:31:57.137Z</time>
      </trkpt>
      <trkpt lat="42.81131" lon="0.42526">
        <ele>1201</ele>
        <time>2024-07-25T23:32:02.743Z</time>
      </trkpt>
      <trkpt lat="42.81139" lon="0.42533">
        <ele>1202.3</ele>
        <time>2024-07-25T23:32:06.096Z</time>
      </trkpt>
      <trkpt lat="42.81152" lon="0.42549">
        <ele>1202.6</ele>
        <time>2024-07-25T23:32:10.214Z</time>
      </trkpt>
      <trkpt lat="42.81165" lon="0.42577">
        <ele>1204.9</ele>
        <time>2024-07-25T23:32:17.596Z</time>
      </trkpt>
      <trkpt lat="42.8117" lon="0.42593">
        <ele>1206.4</ele>
        <time>2024-07-25T23:32:21.796Z</time>
      </trkpt>
      <trkpt lat="42.81179" lon="0.42633">
        <ele>1209.6</ele>
        <time>2024-07-25T23:32:31.435Z</time>
      </trkpt>
      <trkpt lat="42.81185" lon="0.42671">
        <ele>1212.9</ele>
        <time>2024-07-25T23:32:40.760Z</time>
      </trkpt>
      <trkpt lat="42.8119" lon="0.42688">
        <ele>1214.1</ele>
        <time>2024-07-25T23:32:44.766Z</time>
      </trkpt>
      <trkpt lat="42.81198" lon="0.42707">
        <ele>1215.8</ele>
        <time>2024-07-25T23:32:49.840Z</time>
      </trkpt>
      <trkpt lat="42.81215" lon="0.42734">
        <ele>1218.6</ele>
        <time>2024-07-25T23:32:58.125Z</time>
      </trkpt>
      <trkpt lat="42.81239" lon="0.42765">
        <ele>1220.9</ele>
        <time>2024-07-25T23:33:07.342Z</time>
      </trkpt>
      <trkpt lat="42.81252" lon="0.42778">
        <ele>1221.9</ele>
        <time>2024-07-25T23:33:11.726Z</time>
      </trkpt>
      <trkpt lat="42.81268" lon="0.42787">
        <ele>1222.1</ele>
        <time>2024-07-25T23:33:15.724Z</time>
      </trkpt>
      <trkpt lat="42.81294" lon="0.42792">
        <ele>1222.6</ele>
        <time>2024-07-25T23:33:21.935Z</time>
      </trkpt>
      <trkpt lat="42.81304" lon="0.42799">
        <ele>1224.3</ele>
        <time>2024-07-25T23:33:26.118Z</time>
      </trkpt>
      <trkpt lat="42.81309" lon="0.42809">
        <ele>1225.7</ele>
        <time>2024-07-25T23:33:29.501Z</time>
      </trkpt>
      <trkpt lat="42.8131" lon="0.42821">
        <ele>1227.1</ele>
        <time>2024-07-25T23:33:32.882Z</time>
      </trkpt>
      <trkpt lat="42.81307" lon="0.42831">
        <ele>1228.6</ele>
        <time>2024-07-25T23:33:36.288Z</time>
      </trkpt>
      <trkpt lat="42.81303" lon="0.42836">
        <ele>1230.1</ele>
        <time>2024-07-25T23:33:39.601Z</time>
        <extensions>
          <visugpx:TrkExtension xmlns:visugpx="https://www.visugpx.com/editgpx/">
            <visugpx:node>65</visugpx:node>
            </visugpx:TrkExtension>
        </extensions>
      </trkpt>
      <trkpt lat="42.81296" lon="0.4284">
        <ele>1231.6</ele>
        <time>2024-07-25T23:33:42.971Z</time>
      </trkpt>
      <trkpt lat="42.8129" lon="0.42841">
        <ele>1232</ele>
        <time>2024-07-25T23:33:44.637Z</time>
      </trkpt>
      <trkpt lat="42.8127" lon="0.4284">
        <ele>1232.8</ele>
        <time>2024-07-25T23:33:49.698Z</time>
      </trkpt>
      <trkpt lat="42.81258" lon="0.42838">
        <ele>1233.5</ele>
        <time>2024-07-25T23:33:52.940Z</time>
      </trkpt>
      <trkpt lat="42.81234" lon="0.42829">
        <ele>1235.3</ele>
        <time>2024-07-25T23:33:59.944Z</time>
      </trkpt>
      <trkpt lat="42.81175" lon="0.42798">
        <ele>1242.6</ele>
        <time>2024-07-25T23:34:20.602Z</time>
      </trkpt>
      <trkpt lat="42.81119" lon="0.42755">
        <ele>1246.2</ele>
        <time>2024-07-25T23:34:37.730Z</time>
      </trkpt>
      <trkpt lat="42.81096" lon="0.4274">
        <ele>1248.4</ele>
        <time>2024-07-25T23:34:45.254Z</time>
      </trkpt>
      <trkpt lat="42.81081" lon="0.42733">
        <ele>1250.5</ele>
        <time>2024-07-25T23:34:50.760Z</time>
      </trkpt>
      <trkpt lat="42.81042" lon="0.42719">
        <ele>1254.5</ele>
        <time>2024-07-25T23:35:03.202Z</time>
      </trkpt>
      <trkpt lat="42.81022" lon="0.42708">
        <ele>1257</ele>
        <time>2024-07-25T23:35:10.260Z</time>
      </trkpt>
      <trkpt lat="42.8101" lon="0.42699">
        <ele>1258.6</ele>
        <time>2024-07-25T23:35:14.757Z</time>
      </trkpt>
      <trkpt lat="42.8099" lon="0.4268">
        <ele>1259.9</ele>
        <time>2024-07-25T23:35:21.196Z</time>
      </trkpt>
      <trkpt lat="42.80974" lon="0.42668">
        <ele>1261.8</ele>
        <time>2024-07-25T23:35:26.927Z</time>
      </trkpt>
      <trkpt lat="42.80943" lon="0.42651">
        <ele>1265.8</ele>
        <time>2024-07-25T23:35:38.010Z</time>
      </trkpt>
      <trkpt lat="42.80933" lon="0.42642">
        <ele>1266.3</ele>
        <time>2024-07-25T23:35:41.058Z</time>
      </trkpt>
      <trkpt lat="42.80884" lon="0.42575">
        <ele>1272.7</ele>
        <time>2024-07-25T23:36:01.959Z</time>
      </trkpt>
      <trkpt lat="42.80877" lon="0.42566">
        <ele>1273.1</ele>
        <time>2024-07-25T23:36:04.405Z</time>
      </trkpt>
      <trkpt lat="42.80869" lon="0.42559">
        <ele>1274.6</ele>
        <time>2024-07-25T23:36:08.030Z</time>
      </trkpt>
      <trkpt lat="42.8085" lon="0.42546">
        <ele>1277.2</ele>
        <time>2024-07-25T23:36:15.147Z</time>
      </trkpt>
      <trkpt lat="42.80838" lon="0.4254">
        <ele>1278.5</ele>
        <time>2024-07-25T23:36:19.126Z</time>
      </trkpt>
      <trkpt lat="42.8077" lon="0.42513">
        <ele>1284.8</ele>
        <time>2024-07-25T23:36:40.217Z</time>
        <extensions>
          <visugpx:TrkExtension xmlns:visugpx="https://www.visugpx.com/editgpx/">
            <visugpx:node>66</visugpx:node>
            </visugpx:TrkExtension>
        </extensions>
      </trkpt>
      <trkpt lat="42.8071" lon="0.42492">
        <ele>1289.7</ele>
        <time>2024-07-25T23:36:58.052Z</time>
      </trkpt>
      <trkpt lat="42.80688" lon="0.42487">
        <ele>1292.3</ele>
        <time>2024-07-25T23:37:05.368Z</time>
      </trkpt>
      <trkpt lat="42.80621" lon="0.42476">
        <ele>1298.1</ele>
        <time>2024-07-25T23:37:25.258Z</time>
      </trkpt>
      <trkpt lat="42.80568" lon="0.42471">
        <ele>1303.2</ele>
        <time>2024-07-25T23:37:41.468Z</time>
      </trkpt>
      <trkpt lat="42.80513" lon="0.42468">
        <ele>1307.9</ele>
        <time>2024-07-25T23:37:57.660Z</time>
      </trkpt>
      <trkpt lat="42.80442" lon="0.42459">
        <ele>1316.4</ele>
        <time>2024-07-25T23:38:21.270Z</time>
      </trkpt>
      <trkpt lat="42.80423" lon="0.42458">
        <ele>1317.8</ele>
        <time>2024-07-25T23:38:26.644Z</time>
      </trkpt>
      <trkpt lat="42.80411" lon="0.42459">
        <ele>1318.4</ele>
        <time>2024-07-25T23:38:29.784Z</time>
      </trkpt>
      <trkpt lat="42.80396" lon="0.42463">
        <ele>1319.2</ele>
        <time>2024-07-25T23:38:33.808Z</time>
      </trkpt>
      <trkpt lat="42.8038" lon="0.4247">
        <ele>1321.4</ele>
        <time>2024-07-25T23:38:39.612Z</time>
        <extensions>
          <visugpx:TrkExtension xmlns:visugpx="https://www.visugpx.com/editgpx/">
            <visugpx:node>67</visugpx:node>
            </visugpx:TrkExtension>
        </extensions>
      </trkpt>
      <trkpt lat="42.80354" lon="0.42484">
        <ele>1324.9</ele>
        <time>2024-07-25T23:38:49.069Z</time>
      </trkpt>
      <trkpt lat="42.80332" lon="0.42499">
        <ele>1325.4</ele>
        <time>2024-07-25T23:38:54.911Z</time>
      </trkpt>
      <trkpt lat="42.80272" lon="0.42546">
        <ele>1333.3</ele>
        <time>2024-07-25T23:39:17.416Z</time>
      </trkpt>
      <trkpt lat="42.80263" lon="0.42558">
        <ele>1334.9</ele>
        <time>2024-07-25T23:39:21.705Z</time>
      </trkpt>
      <trkpt lat="42.80255" lon="0.42577">
        <ele>1336.3</ele>
        <time>2024-07-25T23:39:26.461Z</time>
      </trkpt>
      <trkpt lat="42.80239" lon="0.4264">
        <ele>1341</ele>
        <time>2024-07-25T23:39:41.390Z</time>
      </trkpt>
      <trkpt lat="42.80226" lon="0.42676">
        <ele>1343.9</ele>
        <time>2024-07-25T23:39:50.452Z</time>
      </trkpt>
      <trkpt lat="42.80218" lon="0.42705">
        <ele>1345.6</ele>
        <time>2024-07-25T23:39:56.902Z</time>
      </trkpt>
      <trkpt lat="42.80208" lon="0.42787">
        <ele>1353.2</ele>
        <time>2024-07-25T23:40:17.490Z</time>
      </trkpt>
      <trkpt lat="42.802" lon="0.42821">
        <ele>1354.8</ele>
        <time>2024-07-25T23:40:24.590Z</time>
      </trkpt>
      <trkpt lat="42.80191" lon="0.4285">
        <ele>1356</ele>
        <time>2024-07-25T23:40:30.665Z</time>
      </trkpt>
      <trkpt lat="42.80183" lon="0.42901">
        <ele>1358.6</ele>
        <time>2024-07-25T23:40:41.275Z</time>
      </trkpt>
      <trkpt lat="42.80178" lon="0.42962">
        <ele>1360.9</ele>
        <time>2024-07-25T23:40:53.083Z</time>
      </trkpt>
      <trkpt lat="42.8018" lon="0.43017">
        <ele>1362.3</ele>
        <time>2024-07-25T23:41:03.126Z</time>
      </trkpt>
      <trkpt lat="42.80176" lon="0.4305">
        <ele>1362.6</ele>
        <time>2024-07-25T23:41:08.808Z</time>
      </trkpt>
      <trkpt lat="42.80171" lon="0.43068">
        <ele>1363.3</ele>
        <time>2024-07-25T23:41:12.492Z</time>
      </trkpt>
      <trkpt lat="42.80146" lon="0.43136">
        <ele>1367.3</ele>
        <time>2024-07-25T23:41:28.162Z</time>
      </trkpt>
      <trkpt lat="42.80141" lon="0.43159">
        <ele>1368</ele>
        <time>2024-07-25T23:41:32.610Z</time>
      </trkpt>
      <trkpt lat="42.80137" lon="0.43198">
        <ele>1369</ele>
        <time>2024-07-25T23:41:39.791Z</time>
        <extensions>
          <visugpx:TrkExtension xmlns:visugpx="https://www.visugpx.com/editgpx/">
            <visugpx:node>68</visugpx:node>
            </visugpx:TrkExtension>
        </extensions>
      </trkpt>
      <trkpt lat="42.80139" lon="0.43304">
        <ele>1376.9</ele>
        <time>2024-07-25T23:42:03.992Z</time>
      </trkpt>
      <trkpt lat="42.80136" lon="0.43331">
        <ele>1377.7</ele>
        <time>2024-07-25T23:42:09.059Z</time>
      </trkpt>
      <trkpt lat="42.80118" lon="0.43447">
        <ele>1385.2</ele>
        <time>2024-07-25T23:42:34.722Z</time>
      </trkpt>
      <trkpt lat="42.80112" lon="0.43505">
        <ele>1386.9</ele>
        <time>2024-07-25T23:42:45.575Z</time>
      </trkpt>
      <trkpt lat="42.80088" lon="0.43632">
        <ele>1395.1</ele>
        <time>2024-07-25T23:43:13.864Z</time>
      </trkpt>
      <trkpt lat="42.80086" lon="0.43654">
        <ele>1395.8</ele>
        <time>2024-07-25T23:43:18.018Z</time>
      </trkpt>
      <trkpt lat="42.8009" lon="0.43759">
        <ele>1401.4</ele>
        <time>2024-07-25T23:43:39.746Z</time>
      </trkpt>
      <trkpt lat="42.80091" lon="0.43861">
        <ele>1408</ele>
        <time>2024-07-25T23:44:01.975Z</time>
      </trkpt>
      <trkpt lat="42.80094" lon="0.43917">
        <ele>1410</ele>
        <time>2024-07-25T23:44:12.688Z</time>
      </trkpt>
      <trkpt lat="42.80098" lon="0.43963">
        <ele>1412</ele>
        <time>2024-07-25T23:44:21.831Z</time>
      </trkpt>
      <trkpt lat="42.80108" lon="0.4403">
        <ele>1416.6</ele>
        <time>2024-07-25T23:44:36.911Z</time>
      </trkpt>
      <trkpt lat="42.80109" lon="0.44092">
        <ele>1419.4</ele>
        <time>2024-07-25T23:44:49.261Z</time>
      </trkpt>
      <trkpt lat="42.80113" lon="0.44122">
        <ele>1421.3</ele>
        <time>2024-07-25T23:44:55.832Z</time>
      </trkpt>
      <trkpt lat="42.80122" lon="0.44144">
        <ele>1423.1</ele>
        <time>2024-07-25T23:45:01.498Z</time>
      </trkpt>
      <trkpt lat="42.80136" lon="0.44169">
        <ele>1424</ele>
        <time>2024-07-25T23:45:07.315Z</time>
      </trkpt>
      <trkpt lat="42.80144" lon="0.4419">
        <ele>1426.2</ele>
        <time>2024-07-25T23:45:13.221Z</time>
      </trkpt>
      <trkpt lat="42.80161" lon="0.44294">
        <ele>1432</ele>
        <time>2024-07-25T23:45:35.358Z</time>
      </trkpt>
      <trkpt lat="42.80165" lon="0.4431">
        <ele>1433</ele>
        <time>2024-07-25T23:45:38.948Z</time>
      </trkpt>
      <trkpt lat="42.80176" lon="0.44336">
        <ele>1436.4</ele>
        <time>2024-07-25T23:45:47.238Z</time>
      </trkpt>
      <trkpt lat="42.80201" lon="0.44379">
        <ele>1440.2</ele>
        <time>2024-07-25T23:45:59.453Z</time>
      </trkpt>
      <trkpt lat="42.80209" lon="0.44397">
        <ele>1441.9</ele>
        <time>2024-07-25T23:46:04.402Z</time>
      </trkpt>
      <trkpt lat="42.80212" lon="0.44411">
        <ele>1441.7</ele>
        <time>2024-07-25T23:46:06.656Z</time>
      </trkpt>
      <trkpt lat="42.8021" lon="0.44433">
        <ele>1442.5</ele>
        <time>2024-07-25T23:46:10.894Z</time>
        <extensions>
          <visugpx:TrkExtension xmlns:visugpx="https://www.visugpx.com/editgpx/">
            <visugpx:node>69</visugpx:node>
            </visugpx:TrkExtension>
        </extensions>
      </trkpt>
      <trkpt lat="42.80205" lon="0.44464">
        <ele>1444.9</ele>
        <time>2024-07-25T23:46:18.177Z</time>
      </trkpt>
      <trkpt lat="42.80203" lon="0.44489">
        <ele>1446.5</ele>
        <time>2024-07-25T23:46:23.629Z</time>
      </trkpt>
      <trkpt lat="42.80202" lon="0.44556">
        <ele>1451.7</ele>
        <time>2024-07-25T23:46:39.152Z</time>
      </trkpt>
      <trkpt lat="42.80196" lon="0.44684">
        <ele>1462</ele>
        <time>2024-07-25T23:47:09.251Z</time>
      </trkpt>
      <trkpt lat="42.80182" lon="0.4491">
        <ele>1477</ele>
        <time>2024-07-25T23:47:59.008Z</time>
      </trkpt>
      <trkpt lat="42.80188" lon="0.44952">
        <ele>1480</ele>
        <time>2024-07-25T23:48:08.572Z</time>
      </trkpt>
      <trkpt lat="42.80212" lon="0.4503">
        <ele>1485.9</ele>
        <time>2024-07-25T23:48:27.447Z</time>
      </trkpt>
      <trkpt lat="42.80221" lon="0.45067">
        <ele>1488.9</ele>
        <time>2024-07-25T23:48:36.449Z</time>
      </trkpt>
      <trkpt lat="42.80231" lon="0.45141">
        <ele>1493.8</ele>
        <time>2024-07-25T23:48:52.878Z</time>
      </trkpt>
      <trkpt lat="42.80232" lon="0.45211">
        <ele>1499.3</ele>
        <time>2024-07-25T23:49:09.170Z</time>
      </trkpt>
      <trkpt lat="42.80235" lon="0.45254">
        <ele>1500.8</ele>
        <time>2024-07-25T23:49:17.379Z</time>
      </trkpt>
      <trkpt lat="42.80232" lon="0.45275">
        <ele>1501.5</ele>
        <time>2024-07-25T23:49:21.408Z</time>
      </trkpt>
      <trkpt lat="42.80211" lon="0.45324">
        <ele>1507.9</ele>
        <time>2024-07-25T23:49:37.042Z</time>
      </trkpt>
      <trkpt lat="42.80206" lon="0.45347">
        <ele>1509.8</ele>
        <time>2024-07-25T23:49:42.642Z</time>
      </trkpt>
      <trkpt lat="42.80202" lon="0.45456">
        <ele>1517.7</ele>
        <time>2024-07-25T23:50:07.302Z</time>
      </trkpt>
      <trkpt lat="42.80191" lon="0.4552">
        <ele>1522.2</ele>
        <time>2024-07-25T23:50:21.881Z</time>
      </trkpt>
      <trkpt lat="42.80183" lon="0.45619">
        <ele>1529</ele>
        <time>2024-07-25T23:50:43.952Z</time>
      </trkpt>
      <trkpt lat="42.80172" lon="0.45698">
        <ele>1535</ele>
        <time>2024-07-25T23:51:02.315Z</time>
        <extensions>
          <visugpx:TrkExtension xmlns:visugpx="https://www.visugpx.com/editgpx/">
            <visugpx:node>70</visugpx:node>
            </visugpx:TrkExtension>
        </extensions>
      </trkpt>
      <trkpt lat="42.80171" lon="0.45717">
        <ele>1536.3</ele>
        <time>2024-07-25T23:51:06.535Z</time>
      </trkpt>
      <trkpt lat="42.80172" lon="0.45733">
        <ele>1537.4</ele>
        <time>2024-07-25T23:51:10.098Z</time>
      </trkpt>
      <trkpt lat="42.80182" lon="0.45802">
        <ele>1544.2</ele>
        <time>2024-07-25T23:51:27.975Z</time>
      </trkpt>
      <trkpt lat="42.80189" lon="0.45919">
        <ele>1552</ele>
        <time>2024-07-25T23:51:53.765Z</time>
      </trkpt>
      <trkpt lat="42.80221" lon="0.46182">
        <ele>1563.4</ele>
        <time>2024-07-25T23:52:46.284Z</time>
      </trkpt>
      <trkpt lat="42.80226" lon="0.46239">
        <ele>1568.4</ele>
        <time>2024-07-25T23:53:00.205Z</time>
      </trkpt>
      <trkpt lat="42.80229" lon="0.46308">
        <ele>1570.1</ele>
        <time>2024-07-25T23:53:12.766Z</time>
        <extensions>
          <visugpx:TrkExtension xmlns:visugpx="https://www.visugpx.com/editgpx/">
            <visugpx:node>71</visugpx:node>
            </visugpx:TrkExtension>
        </extensions>
      </trkpt>
    </trkseg>
  </trk>
</gpx>